Observation data for Canadian on 09/13/2017      Previous  Date  Next       Current Mesonet Observations  Soil Data  Daily Summary Page  Observations in Plain Language
KCA1 130500Z 18002KT 18/09 A2991 RMK A01 T01750092  RH  058%=      5-min Rain = 0
KCA1 130501Z 18001KT 17/09 A2991 RMK A01 T01740092  RH  059%=      5-min Rain = 0
KCA1 130502Z 17001KT 17/09 A2991 RMK A01 T01730092  RH  059%=      5-min Rain = 0
KCA1 130503Z 16001KT 17/09 A2991 RMK A01 T01740093  RH  059%=      5-min Rain = 0
KCA1 130504Z 18001KT 17/09 A2991 RMK A01 T01740093  RH  059%=      5-min Rain = 0
KCA1 130505Z 20002KT 17/09 A2991 RMK A01 T01740094  RH  059%=      5-min Rain = 0
KCA1 130506Z 19001KT 18/09 A2991 RMK A01 T01750093  RH  059%=      5-min Rain = 0
KCA1 130507Z 20001KT 18/09 A2991 RMK A01 T01750093  RH  058%=      5-min Rain = 0
KCA1 130508Z 21001KT 17/09 A2991 RMK A01 T01740092  RH  058%=      5-min Rain = 0
KCA1 130509Z 21000KT 17/10 A2991 RMK A01 T01740095  RH  060%=      5-min Rain = 0
KCA1 130510Z 00000KT 17/10 A2991 RMK A01 T01740101  RH  062%=      5-min Rain = 0
KCA1 130511Z 00000KT 17/10 A2991 RMK A01 T01730103  RH  063%=      5-min Rain = 0
KCA1 130512Z 16000KT 17/10 A2991 RMK A01 T01730100  RH  062%=      5-min Rain = 0
KCA1 130513Z 16000KT 17/09 A2991 RMK A01 T01720093  RH  059%=      5-min Rain = 0
KCA1 130514Z 00000KT 17/09 A2991 RMK A01 T01690090  RH  060%=      5-min Rain = 0
KCA1 130515Z 00000KT 17/09 A2991 RMK A01 T01660089  RH  060%=      5-min Rain = 0
KCA1 130516Z 00000KT 16/09 A2991 RMK A01 T01630088  RH  061%=      5-min Rain = 0
KCA1 130517Z 00000KT 16/09 A2991 RMK A01 T01610088  RH  062%=      5-min Rain = 0
KCA1 130518Z 15000KT 16/09 A2991 RMK A01 T01590088  RH  063%=      5-min Rain = 0
KCA1 130519Z 19000KT 16/09 A2991 RMK A01 T01590089  RH  063%=      5-min Rain = 0
KCA1 130520Z 00000KT 16/09 A2991 RMK A01 T01590090  RH  063%=      5-min Rain = 0
KCA1 130521Z 00000KT 16/09 A2991 RMK A01 T01600089  RH  063%=      5-min Rain = 0
KCA1 130522Z 00000KT 16/09 A2991 RMK A01 T01600089  RH  063%=      5-min Rain = 0
KCA1 130523Z 00000KT 16/09 A2991 RMK A01 T01600090  RH  063%=      5-min Rain = 0
KCA1 130524Z 00000KT 16/09 A2991 RMK A01 T01610090  RH  063%=      5-min Rain = 0
KCA1 130525Z 00000KT 16/09 A2991 RMK A01 T01610090  RH  063%=      5-min Rain = 0
KCA1 130526Z 00000KT 16/09 A2991 RMK A01 T01620091  RH  063%=      5-min Rain = 0
KCA1 130527Z 08001KT 16/09 A2991 RMK A01 T01630091  RH  062%=      5-min Rain = 0
KCA1 130528Z 08002KT 16/09 A2991 RMK A01 T01630090  RH  062%=      5-min Rain = 0
KCA1 130529Z 09002KT 16/09 A2991 RMK A01 T01620089  RH  062%=      5-min Rain = 0
KCA1 130530Z 10002KT 16/09 A2991 RMK A01 T01600089  RH  063%=      5-min Rain = 0
KCA1 130531Z 10002KT 16/09 A2991 RMK A01 T01590089  RH  063%=      5-min Rain = 0
KCA1 130532Z 10002KT 16/09 A2991 RMK A01 T01580089  RH  063%=      5-min Rain = 0
KCA1 130533Z 09002KT 16/09 A2991 RMK A01 T01590090  RH  064%=      5-min Rain = 0
KCA1 130534Z 08002KT 16/09 A2991 RMK A01 T01580090  RH  064%=      5-min Rain = 0
KCA1 130535Z 08002KT 16/09 A2991 RMK A01 T01580090  RH  064%=      5-min Rain = 0
KCA1 130536Z 09001KT 16/09 A2991 RMK A01 T01580090  RH  064%=      5-min Rain = 0
KCA1 130537Z 11001KT 16/09 A2991 RMK A01 T01590091  RH  064%=      5-min Rain = 0
KCA1 130538Z 12001KT 16/09 A2991 RMK A01 T01600091  RH  063%=      5-min Rain = 0
KCA1 130539Z 11002KT 16/09 A299 RMK A01 T01620091  RH  063%=      5-min Rain = 0
KCA1 130540Z 11002KT 16/09 A299 RMK A01 T01630092  RH  062%=      5-min Rain = 0
KCA1 130541Z 10002KT 16/09 A299 RMK A01 T01640092  RH  062%=      5-min Rain = 0
KCA1 130542Z 10002KT 17/09 A299 RMK A01 T01650091  RH  062%=      5-min Rain = 0
KCA1 130543Z 12002KT 17/09 A299 RMK A01 T01650091  RH  061%=      5-min Rain = 0
KCA1 130544Z 13002KT 16/09 A299 RMK A01 T01640090  RH  062%=      5-min Rain = 0
KCA1 130545Z 14002KT 16/09 A299 RMK A01 T01620090  RH  062%=      5-min Rain = 0
KCA1 130546Z 13002KT 16/09 A299 RMK A01 T01640091  RH  062%=      5-min Rain = 0
KCA1 130547Z 11002KT 17/09 A299 RMK A01 T01670093  RH  061%=      5-min Rain = 0
KCA1 130548Z 11003KT 17/09 A299 RMK A01 T01700093  RH  060%=      5-min Rain = 0
KCA1 130549Z 10003KT 17/09 A299 RMK A01 T01710092  RH  060%=      5-min Rain = 0
KCA1 130550Z 10003KT 17/09 A299 RMK A01 T01700091  RH  060%=      5-min Rain = 0
KCA1 130551Z 10003KT 17/09 A299 RMK A01 T01660089  RH  060%=      5-min Rain = 0
KCA1 130552Z 09003KT 16/09 A299 RMK A01 T01620089  RH  062%=      5-min Rain = 0
KCA1 130553Z 09004KT 16/09 A299 RMK A01 T01600089  RH  063%=      5-min Rain = 0
KCA1 130554Z 09004KT 16/09 A299 RMK A01 T01580089  RH  063%=      5-min Rain = 0
KCA1 130555Z 09004KT 16/09 A299 RMK A01 T01570089  RH  064%=      5-min Rain = 0
KCA1 130556Z 09004KT 16/09 A299 RMK A01 T01570090  RH  064%=      5-min Rain = 0
KCA1 130557Z 09004KT 16/09 A299 RMK A01 T01580090  RH  064%=      5-min Rain = 0
KCA1 130558Z 09003KT 16/09 A299 RMK A01 T01580090  RH  064%=      5-min Rain = 0
KCA1 130559Z 09003KT 16/09 A299 RMK A01 T01570090  RH  064%=      5-min Rain = 0
KCA1 130600Z 08004KT 16/09 A299 RMK A01 T01550090  RH  065%=      5-min Rain = 0
KCA1 130601Z 08004KT 15/09 A299 RMK A01 T01540090  RH  065%=      5-min Rain = 0
KCA1 130602Z 08004KT 15/09 A299 RMK A01 T01530089  RH  066%=      5-min Rain = 0
KCA1 130603Z 08004KT 15/09 A299 RMK A01 T01520089  RH  066%=      5-min Rain = 0
KCA1 130604Z 08004KT 15/09 A299 RMK A01 T01510089  RH  066%=      5-min Rain = 0
KCA1 130605Z 08004KT 15/09 A299 RMK A01 T01500089  RH  067%=      5-min Rain = 0
KCA1 130606Z 09003KT 15/09 A299 RMK A01 T01500089  RH  067%=      5-min Rain = 0
KCA1 130607Z 09003KT 15/09 A299 RMK A01 T01490089  RH  067%=      5-min Rain = 0
KCA1 130608Z 08003KT 15/09 A299 RMK A01 T01480089  RH  068%=      5-min Rain = 0
KCA1 130609Z 09004KT 15/09 A299 RMK A01 T01470089  RH  068%=      5-min Rain = 0
KCA1 130610Z 08004KT 15/09 A299 RMK A01 T01470089  RH  068%=      5-min Rain = 0
KCA1 130611Z 08004KT 15/09 A299 RMK A01 T01470089  RH  068%=      5-min Rain = 0
KCA1 130612Z 09003KT 15/09 A299 RMK A01 T01470090  RH  069%=      5-min Rain = 0
KCA1 130613Z 08003KT 15/09 A299 RMK A01 T01470090  RH  069%=      5-min Rain = 0
KCA1 130614Z 09003KT 15/09 A299 RMK A01 T01470090  RH  069%=      5-min Rain = 0
KCA1 130615Z 09003KT 15/09 A299 RMK A01 T01460090  RH  069%=      5-min Rain = 0
KCA1 130616Z 09003KT 15/09 A299 RMK A01 T01470091  RH  069%=      5-min Rain = 0
KCA1 130617Z 09003KT 15/09 A299 RMK A01 T01490092  RH  069%=      5-min Rain = 0
KCA1 130618Z 09003KT 15/09 A299 RMK A01 T01500092  RH  068%=      5-min Rain = 0
KCA1 130619Z 08004KT 15/09 A299 RMK A01 T01490092  RH  068%=      5-min Rain = 0
KCA1 130620Z 07004KT 15/09 A299 RMK A01 T01490092  RH  069%=      5-min Rain = 0
KCA1 130621Z 07004KT 15/09 A299 RMK A01 T01490092  RH  069%=      5-min Rain = 0
KCA1 130622Z 08003KT 15/09 A299 RMK A01 T01480092  RH  069%=      5-min Rain = 0
KCA1 130623Z 08003KT 15/09 A299 RMK A01 T01470092  RH  069%=      5-min Rain = 0
KCA1 130624Z 08003KT 15/09 A299 RMK A01 T01460091  RH  070%=      5-min Rain = 0
KCA1 130625Z 08004KT 15/09 A299 RMK A01 T01450091  RH  070%=      5-min Rain = 0
KCA1 130626Z 07004KT 15/09 A299 RMK A01 T01450092  RH  070%=      5-min Rain = 0
KCA1 130627Z 07004KT 15/09 A299 RMK A01 T01450092  RH  070%=      5-min Rain = 0
KCA1 130628Z 07004KT 15/09 A299 RMK A01 T01460092  RH  070%=      5-min Rain = 0
KCA1 130629Z 07004KT 15/09 A299 RMK A01 T01460092  RH  070%=      5-min Rain = 0
KCA1 130630Z 08004KT 15/09 A299 RMK A01 T01460092  RH  070%=      5-min Rain = 0
KCA1 130631Z 08004KT 15/09 A299 RMK A01 T01460092  RH  070%=      5-min Rain = 0
KCA1 130632Z 08003KT 15/09 A299 RMK A01 T01470092  RH  070%=      5-min Rain = 0
KCA1 130633Z 09003KT 15/09 A299 RMK A01 T01480092  RH  069%=      5-min Rain = 0
KCA1 130634Z 09003KT 15/09 A299 RMK A01 T01490093  RH  069%=      5-min Rain = 0
KCA1 130635Z 09004KT 15/09 A299 RMK A01 T01500093  RH  068%=      5-min Rain = 0
KCA1 130636Z 09004KT 15/09 A299 RMK A01 T01520093  RH  068%=      5-min Rain = 0
KCA1 130637Z 09003KT 15/09 A299 RMK A01 T01520093  RH  068%=      5-min Rain = 0
KCA1 130638Z 10003KT 15/09 A299 RMK A01 T01510092  RH  068%=      5-min Rain = 0
KCA1 130639Z 11003KT 15/09 A299 RMK A01 T01510092  RH  068%=      5-min Rain = 0
KCA1 130640Z 11003KT 15/09 A299 RMK A01 T01500092  RH  068%=      5-min Rain = 0
KCA1 130641Z 10003KT 15/09 A299 RMK A01 T01500092  RH  068%=      5-min Rain = 0
KCA1 130642Z 10003KT 15/09 A299 RMK A01 T01500092  RH  068%=      5-min Rain = 0
KCA1 130643Z 10002KT 15/09 A299 RMK A01 T01500092  RH  068%=      5-min Rain = 0
KCA1 130644Z 09002KT 15/09 A299 RMK A01 T01490092  RH  068%=      5-min Rain = 0
KCA1 130645Z 08003KT 15/09 A299 RMK A01 T01490092  RH  069%=      5-min Rain = 0
KCA1 130646Z 09002KT 15/09 A2989 RMK A01 T01480091  RH  069%=      5-min Rain = 0
KCA1 130647Z 09002KT 15/09 A2989 RMK A01 T01480091  RH  069%=      5-min Rain = 0
KCA1 130648Z 09002KT 15/09 A2989 RMK A01 T01470091  RH  069%=      5-min Rain = 0
KCA1 130649Z 09002KT 15/09 A2989 RMK A01 T01460091  RH  069%=      5-min Rain = 0
KCA1 130650Z 09002KT 15/09 A2989 RMK A01 T01460091  RH  069%=      5-min Rain = 0
KCA1 130651Z 10002KT 15/09 A2989 RMK A01 T01460091  RH  070%=      5-min Rain = 0
KCA1 130652Z 10003KT 15/09 A2989 RMK A01 T01460091  RH  070%=      5-min Rain = 0
KCA1 130653Z 10003KT 15/09 A299 RMK A01 T01460091  RH  070%=      5-min Rain = 0
KCA1 130654Z 10003KT 15/09 A299 RMK A01 T01460091  RH  070%=      5-min Rain = 0
KCA1 130655Z 10002KT 15/09 A299 RMK A01 T01470092  RH  070%=      5-min Rain = 0
KCA1 130656Z 10002KT 15/09 A299 RMK A01 T01490092  RH  069%=      5-min Rain = 0
KCA1 130657Z 11002KT 15/09 A299 RMK A01 T01510092  RH  068%=      5-min Rain = 0
KCA1 130658Z 11002KT 15/09 A299 RMK A01 T01530092  RH  067%=      5-min Rain = 0
KCA1 130659Z 11002KT 15/09 A299 RMK A01 T01540093  RH  067%=      5-min Rain = 0
KCA1 130700Z 11002KT 15/09 A299 RMK A01 T01540092  RH  067%=      5-min Rain = 0
KCA1 130701Z 11002KT 15/09 A299 RMK A01 T01540092  RH  067%=      5-min Rain = 0
KCA1 130702Z 11002KT 15/09 A299 RMK A01 T01530092  RH  067%=      5-min Rain = 0
KCA1 130703Z 11002KT 15/09 A299 RMK A01 T01520092  RH  067%=      5-min Rain = 0
KCA1 130704Z 13002KT 15/09 A299 RMK A01 T01510092  RH  068%=      5-min Rain = 0
KCA1 130705Z 13001KT 15/09 A299 RMK A01 T01510092  RH  068%=      5-min Rain = 0
KCA1 130706Z 15002KT 15/09 A299 RMK A01 T01500092  RH  068%=      5-min Rain = 0
KCA1 130707Z 15002KT 15/09 A299 RMK A01 T01510092  RH  068%=      5-min Rain = 0
KCA1 130708Z 14002KT 15/09 A299 RMK A01 T01520092  RH  067%=      5-min Rain = 0
KCA1 130709Z 12001KT 15/09 A299 RMK A01 T01520092  RH  067%=      5-min Rain = 0
KCA1 130710Z 13001KT 15/09 A299 RMK A01 T01530092  RH  067%=      5-min Rain = 0
KCA1 130711Z 13001KT 16/09 A299 RMK A01 T01550093  RH  066%=      5-min Rain = 0
KCA1 130712Z 13001KT 16/09 A299 RMK A01 T01560093  RH  066%=      5-min Rain = 0
KCA1 130713Z 14001KT 16/09 A299 RMK A01 T01560093  RH  066%=      5-min Rain = 0
KCA1 130714Z 14001KT 16/09 A299 RMK A01 T01560092  RH  066%=      5-min Rain = 0
KCA1 130715Z 14001KT 16/09 A299 RMK A01 T01560093  RH  066%=      5-min Rain = 0
KCA1 130716Z 15001KT 16/09 A299 RMK A01 T01550092  RH  066%=      5-min Rain = 0
KCA1 130717Z 16001KT 16/09 A299 RMK A01 T01550092  RH  066%=      5-min Rain = 0
KCA1 130718Z 17001KT 16/09 A299 RMK A01 T01550092  RH  066%=      5-min Rain = 0
KCA1 130719Z 19001KT 16/09 A299 RMK A01 T01550093  RH  066%=      5-min Rain = 0
KCA1 130720Z 22001KT 16/09 A299 RMK A01 T01560093  RH  066%=      5-min Rain = 0
KCA1 130721Z 23001KT 16/09 A299 RMK A01 T01570093  RH  066%=      5-min Rain = 0
KCA1 130722Z 24000KT 16/09 A299 RMK A01 T01580093  RH  065%=      5-min Rain = 0
KCA1 130723Z 24001KT 16/09 A299 RMK A01 T01580093  RH  065%=      5-min Rain = 0
KCA1 130724Z 24001KT 16/09 A299 RMK A01 T01580093  RH  065%=      5-min Rain = 0
KCA1 130725Z 24000KT 16/09 A299 RMK A01 T01570093  RH  066%=      5-min Rain = 0
KCA1 130726Z 00000KT 16/09 A299 RMK A01 T01560093  RH  066%=      5-min Rain = 0
KCA1 130727Z 00000KT 16/09 A299 RMK A01 T01560093  RH  066%=      5-min Rain = 0
KCA1 130728Z 20000KT 16/09 A299 RMK A01 T01550093  RH  067%=      5-min Rain = 0
KCA1 130729Z 20001KT 16/09 A299 RMK A01 T01550093  RH  067%=      5-min Rain = 0
KCA1 130730Z 20000KT 16/09 A299 RMK A01 T01550093  RH  067%=      5-min Rain = 0
KCA1 130731Z 00000KT 16/09 A299 RMK A01 T01550093  RH  067%=      5-min Rain = 0
KCA1 130732Z 00000KT 15/09 A299 RMK A01 T01540093  RH  067%=      5-min Rain = 0
KCA1 130733Z 00000KT 15/09 A299 RMK A01 T01540092  RH  066%=      5-min Rain = 0
KCA1 130734Z 00000KT 15/09 A299 RMK A01 T01520090  RH  066%=      5-min Rain = 0
KCA1 130735Z 00000KT 15/09 A299 RMK A01 T01500090  RH  067%=      5-min Rain = 0
KCA1 130736Z 25000KT 15/09 A299 RMK A01 T01490090  RH  068%=      5-min Rain = 0
KCA1 130737Z 25000KT 15/09 A299 RMK A01 T01480090  RH  069%=      5-min Rain = 0
KCA1 130738Z 00000KT 15/09 A299 RMK A01 T01470091  RH  069%=      5-min Rain = 0
KCA1 130739Z 00000KT 15/09 A299 RMK A01 T01460091  RH  069%=      5-min Rain = 0
KCA1 130740Z 00000KT 15/09 A299 RMK A01 T01450091  RH  070%=      5-min Rain = 0
KCA1 130741Z 00000KT 15/09 A299 RMK A01 T01450090  RH  070%=      5-min Rain = 0
KCA1 130742Z 36000KT 14/09 A299 RMK A01 T01440090  RH  070%=      5-min Rain = 0
KCA1 130743Z 00001KT 14/09 A299 RMK A01 T01430090  RH  070%=      5-min Rain = 0
KCA1 130744Z 00000KT 14/09 A299 RMK A01 T01420089  RH  070%=      5-min Rain = 0
KCA1 130745Z 00000KT 14/09 A299 RMK A01 T01420090  RH  071%=      5-min Rain = 0
KCA1 130746Z 00000KT 14/09 A299 RMK A01 T01420090  RH  071%=      5-min Rain = 0
KCA1 130747Z 00000KT 14/09 A299 RMK A01 T01420090  RH  071%=      5-min Rain = 0
KCA1 130748Z 00000KT 14/09 A299 RMK A01 T01440092  RH  071%=      5-min Rain = 0
KCA1 130749Z 00000KT 15/09 A299 RMK A01 T01460093  RH  070%=      5-min Rain = 0
KCA1 130750Z 00000KT 15/09 A299 RMK A01 T01480093  RH  069%=      5-min Rain = 0
KCA1 130751Z 00000KT 15/09 A299 RMK A01 T01490092  RH  069%=      5-min Rain = 0
KCA1 130752Z 25000KT 15/09 A299 RMK A01 T01500092  RH  068%=      5-min Rain = 0
KCA1 130753Z 25000KT 15/09 A299 RMK A01 T01490092  RH  069%=      5-min Rain = 0
KCA1 130754Z 25001KT 15/09 A299 RMK A01 T01500093  RH  069%=      5-min Rain = 0
KCA1 130755Z 25001KT 15/09 A299 RMK A01 T01520094  RH  068%=      5-min Rain = 0
KCA1 130756Z 25001KT 15/09 A299 RMK A01 T01540094  RH  067%=      5-min Rain = 0
KCA1 130757Z 27001KT 16/09 A299 RMK A01 T01550093  RH  067%=      5-min Rain = 0
KCA1 130758Z 29001KT 16/09 A299 RMK A01 T01550092  RH  066%=      5-min Rain = 0
KCA1 130759Z 28001KT 15/09 A299 RMK A01 T01520090  RH  066%=      5-min Rain = 0
KCA1 130800Z 26001KT 15/09 A299 RMK A01 T01490089  RH  067%=      5-min Rain = 0
KCA1 130801Z 26001KT 15/09 A299 RMK A01 T01470090  RH  069%=      5-min Rain = 0
KCA1 130802Z 25002KT 15/09 A299 RMK A01 T01460090  RH  069%=      5-min Rain = 0
KCA1 130803Z 24002KT 15/09 A299 RMK A01 T01460091  RH  069%=      5-min Rain = 0
KCA1 130804Z 25001KT 15/09 A299 RMK A01 T01470091  RH  069%=      5-min Rain = 0
KCA1 130805Z 25001KT 15/09 A299 RMK A01 T01480091  RH  069%=      5-min Rain = 0
KCA1 130806Z 25001KT 15/09 A299 RMK A01 T01480091  RH  069%=      5-min Rain = 0
KCA1 130807Z 25001KT 15/09 A299 RMK A01 T01490092  RH  068%=      5-min Rain = 0
KCA1 130808Z 26001KT 15/09 A299 RMK A01 T01490091  RH  068%=      5-min Rain = 0
KCA1 130809Z 27001KT 15/09 A299 RMK A01 T01490091  RH  068%=      5-min Rain = 0
KCA1 130810Z 27001KT 15/09 A299 RMK A01 T01490091  RH  068%=      5-min Rain = 0
KCA1 130811Z 27000KT 15/09 A299 RMK A01 T01500091  RH  068%=      5-min Rain = 0
KCA1 130812Z 00000KT 15/09 A299 RMK A01 T01500091  RH  068%=      5-min Rain = 0
KCA1 130813Z 00000KT 15/09 A299 RMK A01 T01490091  RH  068%=      5-min Rain = 0
KCA1 130814Z 00000KT 15/09 A299 RMK A01 T01480091  RH  068%=      5-min Rain = 0
KCA1 130815Z 00000KT 15/09 A299 RMK A01 T01480091  RH  069%=      5-min Rain = 0
KCA1 130816Z 00000KT 15/09 A299 RMK A01 T01480090  RH  069%=      5-min Rain = 0
KCA1 130817Z 00000KT 15/09 A299 RMK A01 T01470090  RH  069%=      5-min Rain = 0
KCA1 130818Z 27001KT 15/09 A299 RMK A01 T01470091  RH  069%=      5-min Rain = 0
KCA1 130819Z 27001KT 15/09 A299 RMK A01 T01470091  RH  069%=      5-min Rain = 0
KCA1 130820Z 27000KT 15/09 A299 RMK A01 T01470090  RH  069%=      5-min Rain = 0
KCA1 130821Z 00000KT 15/09 A299 RMK A01 T01470090  RH  069%=      5-min Rain = 0
KCA1 130822Z 00000KT 15/09 A299 RMK A01 T01470090  RH  069%=      5-min Rain = 0
KCA1 130823Z 00000KT 15/09 A2989 RMK A01 T01470091  RH  069%=      5-min Rain = 0
KCA1 130824Z 00000KT 15/09 A2989 RMK A01 T01470091  RH  069%=      5-min Rain = 0
KCA1 130825Z 00000KT 15/09 A2989 RMK A01 T01470091  RH  069%=      5-min Rain = 0
KCA1 130826Z 00000KT 15/09 A2989 RMK A01 T01490092  RH  069%=      5-min Rain = 0
KCA1 130827Z 25000KT 15/09 A2989 RMK A01 T01500092  RH  068%=      5-min Rain = 0
KCA1 130828Z 25001KT 15/09 A2989 RMK A01 T01500092  RH  068%=      5-min Rain = 0
KCA1 130829Z 25001KT 15/09 A2989 RMK A01 T01510092  RH  068%=      5-min Rain = 0
KCA1 130830Z 24002KT 15/09 A299 RMK A01 T01510092  RH  068%=      5-min Rain = 0
KCA1 130831Z 25003KT 15/09 A299 RMK A01 T01540094  RH  067%=      5-min Rain = 0
KCA1 130832Z 25002KT 16/09 A299 RMK A01 T01560094  RH  066%=      5-min Rain = 0
KCA1 130833Z 25002KT 16/09 A299 RMK A01 T01580094  RH  066%=      5-min Rain = 0
KCA1 130834Z 27001KT 16/09 A2989 RMK A01 T01580093  RH  065%=      5-min Rain = 0
KCA1 130835Z 28001KT 16/09 A299 RMK A01 T01570093  RH  065%=      5-min Rain = 0
KCA1 130836Z 28001KT 16/09 A299 RMK A01 T01560093  RH  066%=      5-min Rain = 0
KCA1 130837Z 28001KT 16/09 A299 RMK A01 T01550093  RH  066%=      5-min Rain = 0
KCA1 130838Z 28001KT 16/09 A299 RMK A01 T01560093  RH  066%=      5-min Rain = 0
KCA1 130839Z 29001KT 16/09 A299 RMK A01 T01570093  RH  066%=      5-min Rain = 0
KCA1 130840Z 30001KT 16/09 A299 RMK A01 T01560092  RH  066%=      5-min Rain = 0
KCA1 130841Z 30001KT 15/09 A299 RMK A01 T01540091  RH  066%=      5-min Rain = 0
KCA1 130842Z 30001KT 15/09 A299 RMK A01 T01520091  RH  067%=      5-min Rain = 0
KCA1 130843Z 28001KT 15/09 A299 RMK A01 T01510091  RH  067%=      5-min Rain = 0
KCA1 130844Z 26000KT 15/09 A299 RMK A01 T01500091  RH  068%=      5-min Rain = 0
KCA1 130845Z 00000KT 15/09 A299 RMK A01 T01500091  RH  068%=      5-min Rain = 0
KCA1 130846Z 32001KT 15/09 A299 RMK A01 T01490091  RH  068%=      5-min Rain = 0
KCA1 130847Z 32001KT 15/09 A299 RMK A01 T01480091  RH  069%=      5-min Rain = 0
KCA1 130848Z 29001KT 15/09 A299 RMK A01 T01470090  RH  069%=      5-min Rain = 0
KCA1 130849Z 25001KT 15/09 A299 RMK A01 T01460090  RH  069%=      5-min Rain = 0
KCA1 130850Z 25001KT 15/09 A299 RMK A01 T01450091  RH  070%=      5-min Rain = 0
KCA1 130851Z 25000KT 15/09 A299 RMK A01 T01450090  RH  070%=      5-min Rain = 0
KCA1 130852Z 00000KT 15/09 A299 RMK A01 T01450091  RH  070%=      5-min Rain = 0
KCA1 130853Z 00000KT 15/09 A299 RMK A01 T01460091  RH  069%=      5-min Rain = 0
KCA1 130854Z 31000KT 14/09 A299 RMK A01 T01440090  RH  070%=      5-min Rain = 0
KCA1 130855Z 29001KT 14/09 A299 RMK A01 T01430090  RH  070%=      5-min Rain = 0
KCA1 130856Z 27001KT 14/09 A299 RMK A01 T01420089  RH  071%=      5-min Rain = 0
KCA1 130857Z 26000KT 14/09 A299 RMK A01 T01420090  RH  071%=      5-min Rain = 0
KCA1 130858Z 04000KT 14/09 A2989 RMK A01 T01420090  RH  071%=      5-min Rain = 0
KCA1 130859Z 04001KT 14/09 A2989 RMK A01 T01420090  RH  071%=      5-min Rain = 0
KCA1 130900Z 04000KT 14/09 A2989 RMK A01 T01420090  RH  071%=      5-min Rain = 0
KCA1 130901Z 03000KT 14/09 A2989 RMK A01 T01410090  RH  071%=      5-min Rain = 0
KCA1 130902Z 02001KT 14/09 A2989 RMK A01 T01410090  RH  071%=      5-min Rain = 0
KCA1 130903Z 02001KT 14/09 A2989 RMK A01 T01410090  RH  071%=      5-min Rain = 0
KCA1 130904Z 02001KT 14/09 A2989 RMK A01 T01410090  RH  071%=      5-min Rain = 0
KCA1 130905Z 00000KT 14/09 A2989 RMK A01 T01400089  RH  071%=      5-min Rain = 0
KCA1 130906Z 34000KT 14/09 A2989 RMK A01 T01400089  RH  072%=      5-min Rain = 0
KCA1 130907Z 00000KT 14/09 A2989 RMK A01 T01390089  RH  072%=      5-min Rain = 0
KCA1 130908Z 00000KT 14/09 A2989 RMK A01 T01390089  RH  072%=      5-min Rain = 0
KCA1 130909Z 00000KT 14/09 A2989 RMK A01 T01390090  RH  072%=      5-min Rain = 0
KCA1 130910Z 00000KT 14/09 A2989 RMK A01 T01390090  RH  072%=      5-min Rain = 0
KCA1 130911Z 00000KT 14/09 A2989 RMK A01 T01410092  RH  072%=      5-min Rain = 0
KCA1 130912Z 00000KT 14/09 A2989 RMK A01 T01440092  RH  071%=      5-min Rain = 0
KCA1 130913Z 00000KT 15/09 A2989 RMK A01 T01450091  RH  070%=      5-min Rain = 0
KCA1 130914Z 00000KT 15/09 A2989 RMK A01 T01450091  RH  070%=      5-min Rain = 0
KCA1 130915Z 00000KT 15/09 A2989 RMK A01 T01450091  RH  070%=      5-min Rain = 0
KCA1 130916Z 33000KT 14/09 A2989 RMK A01 T01430090  RH  070%=      5-min Rain = 0
KCA1 130917Z 34001KT 14/09 A2989 RMK A01 T01410090  RH  071%=      5-min Rain = 0
KCA1 130918Z 01001KT 14/09 A2989 RMK A01 T01390089  RH  072%=      5-min Rain = 0
KCA1 130919Z 02001KT 14/09 A2989 RMK A01 T01360088  RH  073%=      5-min Rain = 0
KCA1 130920Z 03001KT 13/09 A2989 RMK A01 T01340088  RH  074%=      5-min Rain = 0
KCA1 130921Z 02001KT 13/09 A2989 RMK A01 T01340089  RH  074%=      5-min Rain = 0
KCA1 130922Z 01000KT 13/09 A2989 RMK A01 T01340090  RH  074%=      5-min Rain = 0
KCA1 130923Z 01000KT 13/09 A2989 RMK A01 T01340090  RH  074%=      5-min Rain = 0
KCA1 130924Z 01000KT 13/09 A2989 RMK A01 T01340090  RH  074%=      5-min Rain = 0
KCA1 130925Z 00000KT 13/09 A2989 RMK A01 T01340089  RH  074%=      5-min Rain = 0
KCA1 130926Z 01000KT 13/09 A2989 RMK A01 T01340090  RH  075%=      5-min Rain = 0
KCA1 130927Z 01000KT 13/09 A2989 RMK A01 T01330090  RH  075%=      5-min Rain = 0
KCA1 130928Z 00000KT 13/09 A2989 RMK A01 T01340090  RH  075%=      5-min Rain = 0
KCA1 130929Z 00000KT 14/09 A2989 RMK A01 T01350091  RH  075%=      5-min Rain = 0
KCA1 130930Z 00000KT 14/09 A2989 RMK A01 T01370092  RH  074%=      5-min Rain = 0
KCA1 130931Z 00000KT 14/09 A2989 RMK A01 T01370091  RH  073%=      5-min Rain = 0
KCA1 130932Z 00000KT 14/09 A2989 RMK A01 T01380091  RH  073%=      5-min Rain = 0
KCA1 130933Z 00000KT 14/09 A2989 RMK A01 T01370091  RH  073%=      5-min Rain = 0
KCA1 130934Z 00000KT 14/09 A2989 RMK A01 T01370090  RH  073%=      5-min Rain = 0
KCA1 130935Z 00000KT 14/09 A2989 RMK A01 T01370091  RH  074%=      5-min Rain = 0
KCA1 130936Z 00000KT 14/09 A2989 RMK A01 T01360090  RH  074%=      5-min Rain = 0
KCA1 130937Z 00000KT 14/09 A2989 RMK A01 T01360090  RH  074%=      5-min Rain = 0
KCA1 130938Z 00000KT 14/09 A2989 RMK A01 T01350090  RH  074%=      5-min Rain = 0
KCA1 130939Z 00000KT 14/09 A2989 RMK A01 T01350091  RH  075%=      5-min Rain = 0
KCA1 130940Z 00000KT 14/09 A2989 RMK A01 T01350091  RH  075%=      5-min Rain = 0
KCA1 130941Z 00000KT 14/09 A2989 RMK A01 T01360091  RH  074%=      5-min Rain = 0
KCA1 130942Z 10000KT 14/09 A2989 RMK A01 T01360091  RH  074%=      5-min Rain = 0
KCA1 130943Z 09001KT 14/09 A2989 RMK A01 T01360091  RH  074%=      5-min Rain = 0
KCA1 130944Z 09001KT 14/09 A2989 RMK A01 T01350091  RH  075%=      5-min Rain = 0
KCA1 130945Z 10001KT 13/09 A2989 RMK A01 T01340091  RH  075%=      5-min Rain = 0
KCA1 130946Z 10001KT 13/09 A2989 RMK A01 T01330090  RH  075%=      5-min Rain = 0
KCA1 130947Z 07001KT 13/09 A2989 RMK A01 T01330091  RH  076%=      5-min Rain = 0
KCA1 130948Z 06002KT 14/09 A2989 RMK A01 T01360092  RH  075%=      5-min Rain = 0
KCA1 130949Z 07001KT 14/09 A2989 RMK A01 T01380092  RH  074%=      5-min Rain = 0
KCA1 130950Z 07002KT 14/09 A2989 RMK A01 T01400092  RH  073%=      5-min Rain = 0
KCA1 130951Z 06002KT 14/09 A2989 RMK A01 T01420093  RH  072%=      5-min Rain = 0
KCA1 130952Z 07002KT 14/09 A2989 RMK A01 T01440092  RH  071%=      5-min Rain = 0
KCA1 130953Z 07002KT 14/09 A2989 RMK A01 T01430092  RH  071%=      5-min Rain = 0
KCA1 130954Z 07002KT 14/09 A2989 RMK A01 T01420092  RH  072%=      5-min Rain = 0
KCA1 130955Z 07002KT 14/09 A2989 RMK A01 T01420091  RH  072%=      5-min Rain = 0
KCA1 130956Z 07002KT 14/09 A2989 RMK A01 T01390090  RH  072%=      5-min Rain = 0
KCA1 130957Z 08002KT 14/09 A2988 RMK A01 T01370090  RH  073%=      5-min Rain = 0
KCA1 130958Z 08002KT 14/09 A2988 RMK A01 T01360091  RH  074%=      5-min Rain = 0
KCA1 130959Z 08002KT 14/09 A2988 RMK A01 T01370091  RH  074%=      5-min Rain = 0
KCA1 131000Z 08002KT 14/09 A2988 RMK A01 T01370091  RH  074%=      5-min Rain = 0
KCA1 131001Z 08002KT 14/09 A2988 RMK A01 T01380092  RH  074%=      5-min Rain = 0
KCA1 131002Z 09003KT 14/09 A2988 RMK A01 T01380093  RH  074%=      5-min Rain = 0
KCA1 131003Z 10003KT 14/09 A2988 RMK A01 T01400093  RH  073%=      5-min Rain = 0
KCA1 131004Z 11003KT 14/09 A2988 RMK A01 T01410093  RH  073%=      5-min Rain = 0
KCA1 131005Z 11003KT 14/09 A2988 RMK A01 T01410094  RH  073%=      5-min Rain = 0
KCA1 131006Z 11003KT 14/09 A2988 RMK A01 T01420094  RH  073%=      5-min Rain = 0
KCA1 131007Z 11003KT 14/09 A2988 RMK A01 T01430094  RH  073%=      5-min Rain = 0
KCA1 131008Z 11003KT 14/09 A2988 RMK A01 T01430094  RH  072%=      5-min Rain = 0
KCA1 131009Z 11004KT 14/09 A2988 RMK A01 T01430094  RH  072%=      5-min Rain = 0
KCA1 131010Z 11004KT 14/09 A2988 RMK A01 T01430094  RH  072%=      5-min Rain = 0
KCA1 131011Z 12004KT 14/09 A2988 RMK A01 T01430094  RH  072%=      5-min Rain = 0
KCA1 131012Z 12004KT 14/09 A2988 RMK A01 T01430094  RH  072%=      5-min Rain = 0
KCA1 131013Z 11004KT 14/09 A2988 RMK A01 T01440094  RH  072%=      5-min Rain = 0
KCA1 131014Z 11003KT 15/09 A2988 RMK A01 T01450094  RH  071%=      5-min Rain = 0
KCA1 131015Z 11003KT 15/09 A2988 RMK A01 T01450094  RH  071%=      5-min Rain = 0
KCA1 131016Z 10003KT 15/09 A2988 RMK A01 T01450094  RH  072%=      5-min Rain = 0
KCA1 131017Z 10003KT 14/09 A2988 RMK A01 T01440094  RH  072%=      5-min Rain = 0
KCA1 131018Z 11003KT 14/09 A2988 RMK A01 T01430094  RH  072%=      5-min Rain = 0
KCA1 131019Z 10003KT 14/09 A2988 RMK A01 T01420094  RH  072%=      5-min Rain = 0
KCA1 131020Z 06002KT 14/09 A2988 RMK A01 T01420094  RH  073%=      5-min Rain = 0
KCA1 131021Z 07002KT 14/09 A2988 RMK A01 T01410094  RH  073%=      5-min Rain = 0
KCA1 131022Z 09003KT 14/09 A2988 RMK A01 T01400094  RH  073%=      5-min Rain = 0
KCA1 131023Z 11002KT 14/09 A2988 RMK A01 T01400094  RH  074%=      5-min Rain = 0
KCA1 131024Z 11002KT 14/09 A2988 RMK A01 T01400094  RH  074%=      5-min Rain = 0
KCA1 131025Z 11003KT 14/09 A2988 RMK A01 T01390093  RH  074%=      5-min Rain = 0
KCA1 131026Z 11003KT 14/09 A2988 RMK A01 T01390093  RH  074%=      5-min Rain = 0
KCA1 131027Z 11003KT 14/09 A2988 RMK A01 T01390093  RH  074%=      5-min Rain = 0
KCA1 131028Z 12003KT 14/09 A2988 RMK A01 T01390093  RH  074%=      5-min Rain = 0
KCA1 131029Z 12003KT 14/09 A2988 RMK A01 T01390093  RH  074%=      5-min Rain = 0
KCA1 131030Z 14002KT 14/09 A2988 RMK A01 T01400093  RH  073%=      5-min Rain = 0
KCA1 131031Z 16002KT 14/09 A2988 RMK A01 T01410094  RH  073%=      5-min Rain = 0
KCA1 131032Z 19001KT 14/09 A2988 RMK A01 T01420094  RH  073%=      5-min Rain = 0
KCA1 131033Z 23003KT 14/09 A2988 RMK A01 T01430093  RH  072%=      5-min Rain = 0
KCA1 131034Z 23003KT 14/09 A2988 RMK A01 T01390090  RH  073%=      5-min Rain = 0
KCA1 131035Z 22002KT 13/09 A2988 RMK A01 T01340089  RH  074%=      5-min Rain = 0
KCA1 131036Z 22002KT 13/09 A2988 RMK A01 T01300089  RH  076%=      5-min Rain = 0
KCA1 131037Z 22002KT 13/09 A2988 RMK A01 T01260090  RH  078%=      5-min Rain = 0
KCA1 131038Z 21001KT 12/09 A2988 RMK A01 T01240090  RH  080%=      5-min Rain = 0
KCA1 131039Z 20001KT 12/09 A2988 RMK A01 T01220091  RH  081%=      5-min Rain = 0
KCA1 131040Z 19002KT 12/09 A2988 RMK A01 T01220091  RH  082%=      5-min Rain = 0
KCA1 131041Z 19002KT 12/09 A2989 RMK A01 T01210091  RH  082%=      5-min Rain = 0
KCA1 131042Z 19002KT 12/09 A2989 RMK A01 T01200091  RH  082%=      5-min Rain = 0
KCA1 131043Z 20002KT 12/09 A2989 RMK A01 T01200090  RH  082%=      5-min Rain = 0
KCA1 131044Z 21002KT 12/09 A2989 RMK A01 T01190089  RH  082%=      5-min Rain = 0
KCA1 131045Z 22002KT 12/09 A2989 RMK A01 T01180091  RH  083%=      5-min Rain = 0
KCA1 131046Z 22002KT 12/09 A2989 RMK A01 T01180091  RH  084%=      5-min Rain = 0
KCA1 131047Z 22002KT 12/09 A2989 RMK A01 T01180092  RH  084%=      5-min Rain = 0
KCA1 131048Z 23002KT 12/09 A2989 RMK A01 T01180092  RH  084%=      5-min Rain = 0
KCA1 131049Z 23003KT 12/09 A2989 RMK A01 T01180092  RH  084%=      5-min Rain = 0
KCA1 131050Z 24004KT 12/09 A2989 RMK A01 T01190092  RH  084%=      5-min Rain = 0
KCA1 131051Z 24006KT 12/09 A2989 RMK A01 T01190091  RH  083%=      5-min Rain = 0
KCA1 131052Z 25007KT 12/09 A2989 RMK A01 T01190091  RH  083%=      5-min Rain = 0
KCA1 131053Z 26006KT 12/09 A2989 RMK A01 T01180091  RH  083%=      5-min Rain = 0
KCA1 131054Z 26006KT 12/09 A2989 RMK A01 T01170091  RH  084%=      5-min Rain = 0
KCA1 131055Z 26004KT 12/09 A2989 RMK A01 T01150090  RH  085%=      5-min Rain = 0
KCA1 131056Z 26003KT 11/09 A2989 RMK A01 T01140090  RH  085%=      5-min Rain = 0
KCA1 131057Z 27003KT 11/09 A2989 RMK A01 T01140090  RH  085%=      5-min Rain = 0
KCA1 131058Z 28004KT 11/09 A2989 RMK A01 T01140090  RH  085%=      5-min Rain = 0
KCA1 131059Z 28004KT 11/09 A2989 RMK A01 T01130090  RH  085%=      5-min Rain = 0
KCA1 131100Z 27004KT 11/09 A2989 RMK A01 T01130090  RH  086%=      5-min Rain = 0
KCA1 131101Z 27005KT 11/09 A2989 RMK A01 T01120089  RH  086%=      5-min Rain = 0
KCA1 131102Z 28005KT 11/09 A2989 RMK A01 T01130090  RH  086%=      5-min Rain = 0
KCA1 131103Z 29006KT 12/09 A2989 RMK A01 T01150091  RH  086%=      5-min Rain = 0
KCA1 131104Z 29006KT 12/09 A2989 RMK A01 T01160091  RH  085%=      5-min Rain = 0
KCA1 131105Z 29005KT 12/09 A2989 RMK A01 T01160091  RH  085%=      5-min Rain = 0
KCA1 131106Z 30005KT 12/09 A2989 RMK A01 T01160091  RH  084%=      5-min Rain = 0
KCA1 131107Z 30005KT 12/09 A2989 RMK A01 T01160090  RH  084%=      5-min Rain = 0
KCA1 131108Z 31004KT 12/09 A2989 RMK A01 T01150090  RH  085%=      5-min Rain = 0
KCA1 131109Z 32003KT 12/09 A2989 RMK A01 T01150090  RH  085%=      5-min Rain = 0
KCA1 131110Z 34003KT 12/09 A2989 RMK A01 T01150090  RH  084%=      5-min Rain = 0
KCA1 131111Z 33002KT 12/09 A2989 RMK A01 T01150090  RH  085%=      5-min Rain = 0
KCA1 131112Z 33002KT 11/09 A2989 RMK A01 T01140089  RH  085%=      5-min Rain = 0
KCA1 131113Z 33003KT 12/09 A2989 RMK A01 T01150089  RH  084%=      5-min Rain = 0
KCA1 131114Z 33003KT 11/09 A2989 RMK A01 T01140089  RH  084%=      5-min Rain = 0
KCA1 131115Z 34003KT 11/09 A2989 RMK A01 T01130088  RH  085%=      5-min Rain = 0
KCA1 131116Z 34003KT 11/09 A2989 RMK A01 T01120088  RH  085%=      5-min Rain = 0
KCA1 131117Z 33003KT 11/09 A2988 RMK A01 T01120088  RH  085%=      5-min Rain = 0
KCA1 131118Z 33002KT 11/09 A2988 RMK A01 T01120089  RH  085%=      5-min Rain = 0
KCA1 131119Z 33001KT 11/09 A2988 RMK A01 T01120089  RH  086%=      5-min Rain = 0
KCA1 131120Z 34001KT 11/09 A2988 RMK A01 T01120089  RH  086%=      5-min Rain = 0
KCA1 131121Z 35001KT 11/09 A2988 RMK A01 T01130089  RH  085%=      5-min Rain = 0
KCA1 131122Z 34001KT 11/09 A2988 RMK A01 T01130090  RH  086%=      5-min Rain = 0
KCA1 131123Z 32002KT 11/09 A2988 RMK A01 T01140090  RH  085%=      5-min Rain = 0
KCA1 131124Z 32002KT 11/09 A2988 RMK A01 T01140090  RH  085%=      5-min Rain = 0
KCA1 131125Z 33003KT 11/09 A2988 RMK A01 T01140090  RH  085%=      5-min Rain = 0
KCA1 131126Z 32002KT 11/09 A2988 RMK A01 T01140090  RH  085%=      5-min Rain = 0
KCA1 131127Z 32002KT 12/09 A2988 RMK A01 T01150091  RH  086%=      5-min Rain = 0
KCA1 131128Z 33001KT 12/09 A2988 RMK A01 T01160092  RH  085%=      5-min Rain = 0
KCA1 131129Z 33001KT 12/09 A2988 RMK A01 T01170091  RH  084%=      5-min Rain = 0
KCA1 131130Z 35001KT 12/09 A2988 RMK A01 T01170091  RH  084%=      5-min Rain = 0
KCA1 131131Z 35000KT 12/09 A2988 RMK A01 T01170091  RH  084%=      5-min Rain = 0
KCA1 131132Z 00000KT 12/09 A2988 RMK A01 T01180091  RH  084%=      5-min Rain = 0
KCA1 131133Z 20000KT 12/09 A2988 RMK A01 T01180091  RH  083%=      5-min Rain = 0
KCA1 131134Z 21001KT 12/09 A2988 RMK A01 T01200092  RH  083%=      5-min Rain = 0
KCA1 131135Z 22002KT 12/09 A2988 RMK A01 T01220093  RH  082%=      5-min Rain = 0
KCA1 131136Z 22003KT 12/09 A2988 RMK A01 T01240093  RH  081%=      5-min Rain = 0
KCA1 131137Z 22002KT 13/09 A2988 RMK A01 T01260093  RH  080%=      5-min Rain = 0
KCA1 131138Z 24002KT 13/09 A2988 RMK A01 T01290094  RH  079%=      5-min Rain = 0
KCA1 131139Z 24002KT 13/09 A2989 RMK A01 T01310093  RH  078%=      5-min Rain = 0
KCA1 131140Z 25002KT 13/09 A2989 RMK A01 T01320094  RH  078%=      5-min Rain = 0
KCA1 131141Z 27001KT 13/09 A2989 RMK A01 T01330094  RH  078%=      5-min Rain = 0
KCA1 131142Z 29001KT 13/09 A2988 RMK A01 T01330094  RH  077%=      5-min Rain = 0
KCA1 131143Z 28001KT 13/10 A2989 RMK A01 T01330095  RH  078%=      5-min Rain = 0
KCA1 131144Z 29002KT 13/10 A2989 RMK A01 T01340095  RH  077%=      5-min Rain = 0
KCA1 131145Z 29002KT 14/10 A2989 RMK A01 T01350095  RH  077%=      5-min Rain = 0
KCA1 131146Z 28003KT 14/10 A2989 RMK A01 T01350095  RH  077%=      5-min Rain = 0
KCA1 131147Z 28003KT 14/09 A2989 RMK A01 T01350093  RH  076%=      5-min Rain = 0
KCA1 131148Z 28003KT 13/09 A2989 RMK A01 T01340094  RH  077%=      5-min Rain = 0
KCA1 131149Z 29002KT 13/10 A2989 RMK A01 T01340095  RH  077%=      5-min Rain = 0
KCA1 131150Z 29003KT 13/10 A2989 RMK A01 T01340096  RH  077%=      5-min Rain = 0
KCA1 131151Z 30003KT 14/10 A2989 RMK A01 T01350095  RH  077%=      5-min Rain = 0
KCA1 131152Z 30003KT 14/10 A2989 RMK A01 T01350095  RH  076%=      5-min Rain = 0
KCA1 131153Z 29003KT 14/10 A2989 RMK A01 T01350095  RH  077%=      5-min Rain = 0
KCA1 131154Z 29002KT 14/10 A2989 RMK A01 T01350095  RH  077%=      5-min Rain = 0
KCA1 131155Z 29002KT 13/10 A2989 RMK A01 T01340095  RH  077%=      5-min Rain = 0
KCA1 131156Z 30002KT 13/09 A2989 RMK A01 T01340094  RH  077%=      5-min Rain = 0
KCA1 131157Z 30002KT 13/09 A2989 RMK A01 T01310091  RH  077%=      5-min Rain = 0
KCA1 131158Z 30001KT 13/09 A2989 RMK A01 T01290091  RH  077%=      5-min Rain = 0
KCA1 131159Z 29001KT 13/09 A2989 RMK A01 T01280090  RH  078%=      5-min Rain = 0
KCA1 131200Z 28001KT 13/09 A2989 RMK A01 T01260090  RH  079%=      5-min Rain = 0
KCA1 131201Z 29001KT 13/09 A2989 RMK A01 T01250091  RH  080%=      5-min Rain = 0
KCA1 131202Z 28002KT 13/09 A2989 RMK A01 T01250091  RH  080%=      5-min Rain = 0
KCA1 131203Z 29002KT 12/09 A2989 RMK A01 T01240091  RH  080%=      5-min Rain = 0
KCA1 131204Z 29002KT 12/09 A2989 RMK A01 T01240090  RH  080%=      5-min Rain = 0
KCA1 131205Z 29002KT 12/09 A2989 RMK A01 T01240090  RH  080%=      5-min Rain = 0
KCA1 131206Z 29001KT 12/09 A2989 RMK A01 T01240092  RH  081%=      5-min Rain = 0
KCA1 131207Z 29001KT 13/09 A2988 RMK A01 T01260093  RH  080%=      5-min Rain = 0
KCA1 131208Z 29001KT 13/09 A2988 RMK A01 T01270091  RH  079%=      5-min Rain = 0
KCA1 131209Z 29001KT 13/09 A2988 RMK A01 T01280091  RH  079%=      5-min Rain = 0
KCA1 131210Z 29002KT 13/09 A2989 RMK A01 T01270091  RH  078%=      5-min Rain = 0
KCA1 131211Z 30002KT 13/09 A2989 RMK A01 T01260090  RH  079%=      5-min Rain = 0
KCA1 131212Z 30002KT 13/09 A2989 RMK A01 T01250090  RH  079%=      5-min Rain = 0
KCA1 131213Z 28002KT 13/09 A2989 RMK A01 T01250090  RH  079%=      5-min Rain = 0
KCA1 131214Z 28002KT 13/09 A2989 RMK A01 T01250091  RH  080%=      5-min Rain = 0
KCA1 131215Z 28001KT 13/09 A2989 RMK A01 T01260092  RH  080%=      5-min Rain = 0
KCA1 131216Z 28001KT 13/09 A2989 RMK A01 T01270092  RH  079%=      5-min Rain = 0
KCA1 131217Z 29001KT 13/09 A2988 RMK A01 T01270091  RH  079%=      5-min Rain = 0
KCA1 131218Z 30001KT 13/09 A2989 RMK A01 T01260090  RH  079%=      5-min Rain = 0
KCA1 131219Z 30001KT 13/09 A2989 RMK A01 T01250091  RH  079%=      5-min Rain = 0
KCA1 131220Z 30001KT 13/09 A2989 RMK A01 T01250090  RH  079%=      5-min Rain = 0
KCA1 131221Z 30001KT 13/09 A2989 RMK A01 T01250089  RH  079%=      5-min Rain = 0
KCA1 131222Z 31001KT 12/09 A2989 RMK A01 T01230088  RH  079%=      5-min Rain = 0
KCA1 131223Z 32000KT 12/09 A2989 RMK A01 T01210087  RH  080%=      5-min Rain = 0
KCA1 131224Z 32000KT 12/09 A2989 RMK A01 T01190088  RH  082%=      5-min Rain = 0
KCA1 131225Z 32000KT 12/09 A2989 RMK A01 T01190089  RH  082%=      5-min Rain = 0
KCA1 131226Z 32000KT 12/09 A2989 RMK A01 T01190090  RH  082%=      5-min Rain = 0
KCA1 131227Z 30000KT 12/09 A2989 RMK A01 T01190090  RH  083%=      5-min Rain = 0
KCA1 131228Z 28000KT 12/09 A2989 RMK A01 T01210092  RH  082%=      5-min Rain = 0
KCA1 131229Z 29000KT 12/09 A2989 RMK A01 T01220091  RH  082%=      5-min Rain = 0
KCA1 131230Z 30001KT 12/09 A2989 RMK A01 T01220091  RH  081%=      5-min Rain = 0
KCA1 131231Z 31001KT 12/09 A2989 RMK A01 T01220091  RH  081%=      5-min Rain = 0
KCA1 131232Z 31001KT 12/09 A2989 RMK A01 T01230091  RH  081%=      5-min Rain = 0
KCA1 131233Z 32001KT 12/09 A2989 RMK A01 T01220090  RH  081%=      5-min Rain = 0
KCA1 131234Z 33002KT 12/09 A2989 RMK A01 T01210090  RH  081%=      5-min Rain = 0
KCA1 131235Z 33002KT 12/09 A2989 RMK A01 T01200090  RH  082%=      5-min Rain = 0
KCA1 131236Z 34002KT 12/09 A2989 RMK A01 T01190090  RH  082%=      5-min Rain = 0
KCA1 131237Z 35002KT 12/09 A2989 RMK A01 T01190090  RH  083%=      5-min Rain = 0
KCA1 131238Z 35002KT 12/09 A2989 RMK A01 T01180091  RH  083%=      5-min Rain = 0
KCA1 131239Z 00002KT 12/09 A2989 RMK A01 T01180091  RH  083%=      5-min Rain = 0
KCA1 131240Z 01002KT 12/09 A2989 RMK A01 T01180090  RH  083%=      5-min Rain = 0
KCA1 131241Z 00002KT 12/09 A2989 RMK A01 T01170090  RH  084%=      5-min Rain = 0
KCA1 131242Z 01002KT 12/09 A2989 RMK A01 T01160091  RH  084%=      5-min Rain = 0
KCA1 131243Z 02002KT 12/09 A2989 RMK A01 T01170092  RH  085%=      5-min Rain = 0
KCA1 131244Z 02002KT 12/09 A2989 RMK A01 T01170092  RH  085%=      5-min Rain = 0
KCA1 131245Z 02003KT 12/09 A2989 RMK A01 T01170092  RH  085%=      5-min Rain = 0
KCA1 131246Z 02002KT 12/09 A2989 RMK A01 T01170092  RH  085%=      5-min Rain = 0
KCA1 131247Z 02002KT 12/09 A2989 RMK A01 T01170093  RH  085%=      5-min Rain = 0
KCA1 131248Z 02002KT 12/09 A2989 RMK A01 T01180094  RH  085%=      5-min Rain = 0
KCA1 131249Z 02002KT 12/09 A2989 RMK A01 T01190094  RH  085%=      5-min Rain = 0
KCA1 131250Z 02002KT 12/09 A2989 RMK A01 T01200094  RH  084%=      5-min Rain = 0
KCA1 131251Z 02002KT 12/10 A2989 RMK A01 T01200095  RH  084%=      5-min Rain = 0
KCA1 131252Z 01001KT 12/10 A2989 RMK A01 T01210095  RH  084%=      5-min Rain = 0
KCA1 131253Z 01001KT 12/10 A2989 RMK A01 T01220096  RH  084%=      5-min Rain = 0
KCA1 131254Z 01001KT 12/10 A299 RMK A01 T01230097  RH  084%=      5-min Rain = 0
KCA1 131255Z 01002KT 12/10 A299 RMK A01 T01240097  RH  084%=      5-min Rain = 0
KCA1 131256Z 02002KT 12/10 A299 RMK A01 T01240097  RH  084%=      5-min Rain = 0
KCA1 131257Z 02002KT 13/10 A299 RMK A01 T01250097  RH  083%=      5-min Rain = 0
KCA1 131258Z 03002KT 13/10 A299 RMK A01 T01260097  RH  083%=      5-min Rain = 0
KCA1 131259Z 03003KT 13/10 A299 RMK A01 T01270097  RH  082%=      5-min Rain = 0
KCA1 131300Z 03003KT 13/10 A299 RMK A01 T01280098  RH  082%=      5-min Rain = 0
KCA1 131301Z 04003KT 13/10 A2989 RMK A01 T01280098  RH  082%=      5-min Rain = 0
KCA1 131302Z 04003KT 13/10 A2989 RMK A01 T01290098  RH  082%=      5-min Rain = 0
KCA1 131303Z 05003KT 13/10 A2989 RMK A01 T01300099  RH  081%=      5-min Rain = 0
KCA1 131304Z 05002KT 13/10 A2989 RMK A01 T01310099  RH  081%=      5-min Rain = 0
KCA1 131305Z 06002KT 13/10 A2989 RMK A01 T01320099  RH  080%=      5-min Rain = 0
KCA1 131306Z 06002KT 13/10 A2989 RMK A01 T01340099  RH  080%=      5-min Rain = 0
KCA1 131307Z 06002KT 14/10 A2989 RMK A01 T01350099  RH  079%=      5-min Rain = 0
KCA1 131308Z 06003KT 14/10 A2989 RMK A01 T01360099  RH  079%=      5-min Rain = 0
KCA1 131309Z 06003KT 14/10 A2989 RMK A01 T01370100  RH  078%=      5-min Rain = 0
KCA1 131310Z 06003KT 14/10 A2989 RMK A01 T01380100  RH  078%=      5-min Rain = 0
KCA1 131311Z 06003KT 14/10 A2989 RMK A01 T01390101  RH  078%=      5-min Rain = 0
KCA1 131312Z 06003KT 14/10 A2989 RMK A01 T01400102  RH  077%=      5-min Rain = 0
KCA1 131313Z 06003KT 14/10 A2989 RMK A01 T01420102  RH  077%=      5-min Rain = 0
KCA1 131314Z 06003KT 14/10 A2989 RMK A01 T01430103  RH  077%=      5-min Rain = 0
KCA1 131315Z 06003KT 15/10 A2989 RMK A01 T01450103  RH  076%=      5-min Rain = 0
KCA1 131316Z 06003KT 15/10 A2989 RMK A01 T01460103  RH  076%=      5-min Rain = 0
KCA1 131317Z 06003KT 15/10 A2989 RMK A01 T01480104  RH  075%=      5-min Rain = 0
KCA1 131318Z 06003KT 15/10 A299 RMK A01 T01490103  RH  074%=      5-min Rain = 0
KCA1 131319Z 06003KT 15/10 A299 RMK A01 T01500103  RH  074%=      5-min Rain = 0
KCA1 131320Z 06003KT 15/10 A299 RMK A01 T01510104  RH  073%=      5-min Rain = 0
KCA1 131321Z 07003KT 15/10 A299 RMK A01 T01520104  RH  073%=      5-min Rain = 0
KCA1 131322Z 07003KT 15/10 A299 RMK A01 T01530104  RH  072%=      5-min Rain = 0
KCA1 131323Z 07003KT 15/10 A299 RMK A01 T01540104  RH  072%=      5-min Rain = 0
KCA1 131324Z 07003KT 16/11 A299 RMK A01 T01550105  RH  072%=      5-min Rain = 0
KCA1 131325Z 07003KT 16/11 A299 RMK A01 T01570106  RH  072%=      5-min Rain = 0
KCA1 131326Z 07002KT 16/11 A299 RMK A01 T01580106  RH  071%=      5-min Rain = 0
KCA1 131327Z 07002KT 16/11 A299 RMK A01 T01600106  RH  071%=      5-min Rain = 0
KCA1 131328Z 07002KT 16/11 A299 RMK A01 T01610108  RH  071%=      5-min Rain = 0
KCA1 131329Z 07002KT 16/11 A299 RMK A01 T01630108  RH  070%=      5-min Rain = 0
KCA1 131330Z 08002KT 16/11 A299 RMK A01 T01640107  RH  069%=      5-min Rain = 0
KCA1 131331Z 09002KT 16/11 A299 RMK A01 T01640108  RH  069%=      5-min Rain = 0
KCA1 131332Z 09002KT 17/11 A299 RMK A01 T01660110  RH  069%=      5-min Rain = 0
KCA1 131333Z 10002KT 17/11 A299 RMK A01 T01680108  RH  068%=      5-min Rain = 0
KCA1 131334Z 12002KT 17/11 A299 RMK A01 T01690109  RH  068%=      5-min Rain = 0
KCA1 131335Z 14001KT 17/11 A299 RMK A01 T01700110  RH  067%=      5-min Rain = 0
KCA1 131336Z 16001KT 17/11 A299 RMK A01 T01710112  RH  068%=      5-min Rain = 0
KCA1 131337Z 17001KT 17/11 A299 RMK A01 T01700113  RH  069%=      5-min Rain = 0
KCA1 131338Z 17001KT 17/11 A299 RMK A01 T01680111  RH  069%=      5-min Rain = 0
KCA1 131339Z 16001KT 17/11 A299 RMK A01 T01660109  RH  069%=      5-min Rain = 0
KCA1 131340Z 16000KT 16/11 A299 RMK A01 T01630109  RH  070%=      5-min Rain = 0
KCA1 131341Z 00000KT 16/11 A299 RMK A01 T01620108  RH  070%=      5-min Rain = 0
KCA1 131342Z 13000KT 16/11 A299 RMK A01 T01610108  RH  071%=      5-min Rain = 0
KCA1 131343Z 14001KT 16/11 A299 RMK A01 T01610109  RH  071%=      5-min Rain = 0
KCA1 131344Z 14001KT 16/11 A299 RMK A01 T01620109  RH  071%=      5-min Rain = 0
KCA1 131345Z 13000KT 16/11 A299 RMK A01 T01630110  RH  071%=      5-min Rain = 0
KCA1 131346Z 18001KT 16/11 A299 RMK A01 T01640110  RH  070%=      5-min Rain = 0
KCA1 131347Z 21001KT 17/11 A299 RMK A01 T01650110  RH  070%=      5-min Rain = 0
KCA1 131348Z 18001KT 17/11 A299 RMK A01 T01650108  RH  069%=      5-min Rain = 0
KCA1 131349Z 16000KT 16/11 A299 RMK A01 T01640108  RH  070%=      5-min Rain = 0
KCA1 131350Z 00000KT 16/11 A299 RMK A01 T01630109  RH  070%=      5-min Rain = 0
KCA1 131351Z 14000KT 16/11 A299 RMK A01 T01640109  RH  070%=      5-min Rain = 0
KCA1 131352Z 11001KT 17/11 A299 RMK A01 T01660110  RH  069%=      5-min Rain = 0
KCA1 131353Z 11002KT 17/11 A299 RMK A01 T01690110  RH  068%=      5-min Rain = 0
KCA1 131354Z 11001KT 17/11 A299 RMK A01 T01710111  RH  068%=      5-min Rain = 0
KCA1 131355Z 13001KT 17/11 A299 RMK A01 T01730111  RH  067%=      5-min Rain = 0
KCA1 131356Z 14001KT 17/11 A299 RMK A01 T01740111  RH  067%=      5-min Rain = 0
KCA1 131357Z 12001KT 18/11 A299 RMK A01 T01750112  RH  067%=      5-min Rain = 0
KCA1 131358Z 12001KT 18/11 A299 RMK A01 T01770112  RH  066%=      5-min Rain = 0
KCA1 131359Z 12001KT 18/11 A299 RMK A01 T01780112  RH  065%=      5-min Rain = 0
KCA1 131400Z 12001KT 18/11 A299 RMK A01 T01800113  RH  065%=      5-min Rain = 0
KCA1 131401Z 12001KT 18/11 A299 RMK A01 T01810112  RH  064%=      5-min Rain = 0
KCA1 131402Z 13001KT 18/11 A299 RMK A01 T01830114  RH  064%=      5-min Rain = 0
KCA1 131403Z 14001KT 18/11 A299 RMK A01 T01840114  RH  064%=      5-min Rain = 0
KCA1 131404Z 15001KT 19/11 A299 RMK A01 T01850114  RH  063%=      5-min Rain = 0
KCA1 131405Z 14002KT 19/12 A299 RMK A01 T01850115  RH  064%=      5-min Rain = 0
KCA1 131406Z 15002KT 19/12 A299 RMK A01 T01860115  RH  063%=      5-min Rain = 0
KCA1 131407Z 12002KT 19/12 A299 RMK A01 T01860116  RH  064%=      5-min Rain = 0
KCA1 131408Z 14001KT 19/12 A299 RMK A01 T01860115  RH  063%=      5-min Rain = 0
KCA1 131409Z 15002KT 19/12 A299 RMK A01 T01870116  RH  064%=      5-min Rain = 0
KCA1 131410Z 15001KT 19/12 A299 RMK A01 T01870116  RH  063%=      5-min Rain = 0
KCA1 131411Z 12002KT 19/12 A299 RMK A01 T01870115  RH  063%=      5-min Rain = 0
KCA1 131412Z 13001KT 19/12 A299 RMK A01 T01870115  RH  063%=      5-min Rain = 0
KCA1 131413Z 10002KT 19/12 A299 RMK A01 T01890115  RH  062%=      5-min Rain = 0
KCA1 131414Z 09002KT 19/11 A299 RMK A01 T01900113  RH  061%=      5-min Rain = 0
KCA1 131415Z 09002KT 19/11 A299 RMK A01 T01910112  RH  060%=      5-min Rain = 0
KCA1 131416Z 09002KT 19/11 A299 RMK A01 T01910108  RH  059%=      5-min Rain = 0
KCA1 131417Z 13002KT 19/11 A299 RMK A01 T01920112  RH  060%=      5-min Rain = 0
KCA1 131418Z 11002KT 19/11 A299 RMK A01 T01920110  RH  059%=      5-min Rain = 0
KCA1 131419Z 10002KT 19/11 A299 RMK A01 T01930111  RH  059%=      5-min Rain = 0
KCA1 131420Z 10002KT 19/11 A299 RMK A01 T01940111  RH  059%=      5-min Rain = 0
KCA1 131421Z 11002KT 20/11 A299 RMK A01 T01950111  RH  058%=      5-min Rain = 0
KCA1 131422Z 13002KT 20/11 A299 RMK A01 T01970111  RH  058%=      5-min Rain = 0
KCA1 131423Z 10003KT 20/11 A299 RMK A01 T01980110  RH  057%=      5-min Rain = 0
KCA1 131424Z 11003KT 20/11 A299 RMK A01 T01990109  RH  056%=      5-min Rain = 0
KCA1 131425Z 11003KT 20/11 A299 RMK A01 T01980109  RH  056%=      5-min Rain = 0
KCA1 131426Z 11003KT 20/11 A299 RMK A01 T01980109  RH  056%=      5-min Rain = 0
KCA1 131427Z 13002KT 20/11 A299 RMK A01 T01990110  RH  057%=      5-min Rain = 0
KCA1 131428Z 10003KT 20/11 A299 RMK A01 T01990109  RH  056%=      5-min Rain = 0
KCA1 131429Z 11003KT 20/11 A299 RMK A01 T01990108  RH  056%=      5-min Rain = 0
KCA1 131430Z 11002KT 20/11 A299 RMK A01 T02000108  RH  055%=      5-min Rain = 0
KCA1 131431Z 12003KT 20/11 A299 RMK A01 T02000109  RH  055%=      5-min Rain = 0
KCA1 131432Z 13003KT 20/11 A299 RMK A01 T02020109  RH  055%=      5-min Rain = 0
KCA1 131433Z 12002KT 20/11 A299 RMK A01 T02040111  RH  055%=      5-min Rain = 0
KCA1 131434Z 13005KT 21/11 A299 RMK A01 T02050111  RH  055%=      5-min Rain = 0
KCA1 131435Z 15004KT 21/11 A299 RMK A01 T02060109  RH  054%=      5-min Rain = 0
KCA1 131436Z 14005KT 21/11 A299 RMK A01 T02070110  RH  054%=      5-min Rain = 0
KCA1 131437Z 14004KT 21/11 A2991 RMK A01 T02070109  RH  053%=      5-min Rain = 0
KCA1 131438Z 14003KT 21/11 A2991 RMK A01 T02080109  RH  053%=      5-min Rain = 0
KCA1 131439Z 15003KT 21/11 A2991 RMK A01 T02070111  RH  054%=      5-min Rain = 0
KCA1 131440Z 15003KT 21/11 A2991 RMK A01 T02070110  RH  054%=      5-min Rain = 0
KCA1 131441Z 15003KT 21/11 A2991 RMK A01 T02080111  RH  054%=      5-min Rain = 0
KCA1 131442Z 14003KT 21/11 A2991 RMK A01 T02090113  RH  054%=      5-min Rain = 0
KCA1 131443Z 14003KT 21/11 A2991 RMK A01 T02100111  RH  053%=      5-min Rain = 0
KCA1 131444Z 15004KT 21/11 A2991 RMK A01 T02100110  RH  053%=      5-min Rain = 0
KCA1 131445Z 14004KT 21/11 A2991 RMK A01 T02110111  RH  053%=      5-min Rain = 0
KCA1 131446Z 16003KT 21/11 A2991 RMK A01 T02120109  RH  052%=      5-min Rain = 0
KCA1 131447Z 16003KT 21/11 A299 RMK A01 T02120110  RH  052%=      5-min Rain = 0
KCA1 131448Z 15005KT 21/11 A299 RMK A01 T02130111  RH  052%=      5-min Rain = 0
KCA1 131449Z 16004KT 21/11 A299 RMK A01 T02130110  RH  052%=      5-min Rain = 0
KCA1 131450Z 16004KT 21/11 A299 RMK A01 T02130112  RH  052%=      5-min Rain = 0
KCA1 131451Z 15005KT 21/11 A299 RMK A01 T02140110  RH  052%=      5-min Rain = 0
KCA1 131452Z 14004KT 22/11 A299 RMK A01 T02150110  RH  051%=      5-min Rain = 0
KCA1 131453Z 15006KT 22/11 A299 RMK A01 T02150111  RH  052%=      5-min Rain = 0
KCA1 131454Z 14005KT 22/11 A299 RMK A01 T02150109  RH  051%=      5-min Rain = 0
KCA1 131455Z 14004KT 22/11 A299 RMK A01 T02150110  RH  051%=      5-min Rain = 0
KCA1 131456Z 14006KT 22/11 A299 RMK A01 T02150111  RH  051%=      5-min Rain = 0
KCA1 131457Z 15004KT 22/11 A299 RMK A01 T02160111  RH  051%=      5-min Rain = 0
KCA1 131458Z 14004KT 22/11 A299 RMK A01 T02170111  RH  051%=      5-min Rain = 0
KCA1 131459Z 15006KT 22/11 A299 RMK A01 T02180112  RH  051%=      5-min Rain = 0
KCA1 131500Z 16004KT 22/11 A299 RMK A01 T02190113  RH  051%=      5-min Rain = 0
KCA1 131501Z 14004KT 22/11 A299 RMK A01 T02210114  RH  051%=      5-min Rain = 0
KCA1 131502Z 15005KT 22/11 A299 RMK A01 T02220114  RH  050%=      5-min Rain = 0
KCA1 131503Z 16003KT 22/11 A299 RMK A01 T02230113  RH  050%=      5-min Rain = 0
KCA1 131504Z 16004KT 22/12 A299 RMK A01 T02230116  RH  051%=      5-min Rain = 0
KCA1 131505Z 17004KT 22/12 A299 RMK A01 T02240115  RH  050%=      5-min Rain = 0
KCA1 131506Z 17003KT 22/11 A299 RMK A01 T02240114  RH  050%=      5-min Rain = 0
KCA1 131507Z 15003KT 22/12 A299 RMK A01 T02230116  RH  051%=      5-min Rain = 0
KCA1 131508Z 14005KT 22/12 A299 RMK A01 T02240118  RH  051%=      5-min Rain = 0
KCA1 131509Z 14004KT 22/12 A299 RMK A01 T02240115  RH  050%=      5-min Rain = 0
KCA1 131510Z 15003KT 23/12 A299 RMK A01 T02250116  RH  050%=      5-min Rain = 0
KCA1 131511Z 15004KT 23/12 A299 RMK A01 T02250117  RH  051%=      5-min Rain = 0
KCA1 131512Z 15004KT 23/12 A299 RMK A01 T02260118  RH  050%=      5-min Rain = 0
KCA1 131513Z 17004KT 23/12 A299 RMK A01 T02270117  RH  050%=      5-min Rain = 0
KCA1 131514Z 18005KT 23/12 A299 RMK A01 T02270118  RH  050%=      5-min Rain = 0
KCA1 131515Z 14003KT 23/12 A299 RMK A01 T02290118  RH  049%=      5-min Rain = 0
KCA1 131516Z 14004KT 23/12 A299 RMK A01 T02300118  RH  049%=      5-min Rain = 0
KCA1 131517Z 15004KT 23/12 A299 RMK A01 T02300117  RH  049%=      5-min Rain = 0
KCA1 131518Z 15004KT 23/12 A299 RMK A01 T02310117  RH  049%=      5-min Rain = 0
KCA1 131519Z 15004KT 23/12 A299 RMK A01 T02320118  RH  049%=      5-min Rain = 0
KCA1 131520Z 14004KT 23/12 A299 RMK A01 T02330119  RH  049%=      5-min Rain = 0
KCA1 131521Z 14003KT 23/12 A299 RMK A01 T02340116  RH  048%=      5-min Rain = 0
KCA1 131522Z 16004KT 24/12 A299 RMK A01 T02350119  RH  048%=      5-min Rain = 0
KCA1 131523Z 16005KT 24/12 A299 RMK A01 T02360118  RH  047%=      5-min Rain = 0
KCA1 131524Z 15004KT 24/12 A299 RMK A01 T02370120  RH  048%=      5-min Rain = 0
KCA1 131525Z 15004KT 24/12 A299 RMK A01 T02390121  RH  048%=      5-min Rain = 0
KCA1 131526Z 16006KT 24/12 A299 RMK A01 T02410122  RH  047%=      5-min Rain = 0
KCA1 131527Z 16006KT 24/12 A299 RMK A01 T02440122  RH  047%=      5-min Rain = 0
KCA1 131528Z 15005KT 24/12 A299 RMK A01 T02440121  RH  046%=      5-min Rain = 0
KCA1 131529Z 16006KT 24/12 A299 RMK A01 T02440120  RH  046%=      5-min Rain = 0
KCA1 131530Z 15008KT 25/12 A299 RMK A01 T02460119  RH  045%=      5-min Rain = 0
KCA1 131531Z 16007KT 25/11 A299 RMK A01 T02470114  RH  043%=      5-min Rain = 0
KCA1 131532Z 17010KT 25/12 A299 RMK A01 T02490115  RH  043%=      5-min Rain = 0
KCA1 131533Z 18007KT 25/11 A299 RMK A01 T02510112  RH  042%=      5-min Rain = 0
KCA1 131534Z 18007KT 25/11 A299 RMK A01 T02530110  RH  041%=      5-min Rain = 0
KCA1 131535Z 19008KT 26/11 A299 RMK A01 T02550113  RH  041%=      5-min Rain = 0
KCA1 131536Z 17009KT 26/12 A299 RMK A01 T02590115  RH  041%=      5-min Rain = 0
KCA1 131537Z 18010KT 26/11 A299 RMK A01 T02620112  RH  039%=      5-min Rain = 0
KCA1 131538Z 18008KT 26/11 A299 RMK A01 T02620110  RH  039%=      5-min Rain = 0
KCA1 131539Z 19010KT 26/11 A299 RMK A01 T02620111  RH  039%=      5-min Rain = 0
KCA1 131540Z 19009KT 26/11 A299 RMK A01 T02620110  RH  039%=      5-min Rain = 0
KCA1 131541Z 20008KT 26/11 A299 RMK A01 T02610112  RH  039%=      5-min Rain = 0
KCA1 131542Z 18010KT 26/11 A2989 RMK A01 T02620112  RH  039%=      5-min Rain = 0
KCA1 131543Z 18010KT 26/11 A2989 RMK A01 T02630110  RH  038%=      5-min Rain = 0
KCA1 131544Z 19010KT 26/11 A2989 RMK A01 T02630110  RH  038%=      5-min Rain = 0
KCA1 131545Z 19009KT 26/11 A2989 RMK A01 T02620110  RH  038%=      5-min Rain = 0
KCA1 131546Z 18009KT 26/11 A2989 RMK A01 T02630109  RH  038%=      5-min Rain = 0
KCA1 131547Z 19010KT 26/11 A2989 RMK A01 T02630108  RH  038%=      5-min Rain = 0
KCA1 131548Z 18008KT 26/11 A2989 RMK A01 T02630109  RH  038%=      5-min Rain = 0
KCA1 131549Z 18009KT 26/11 A2989 RMK A01 T02630110  RH  038%=      5-min Rain = 0
KCA1 131550Z 17011KT 26/11 A2989 RMK A01 T02640110  RH  038%=      5-min Rain = 0
KCA1 131551Z 18009KT 27/11 A2989 RMK A01 T02650108  RH  037%=      5-min Rain = 0
KCA1 131552Z 18010KT 27/11 A2989 RMK A01 T02660109  RH  038%=      5-min Rain = 0
KCA1 131553Z 19008KT 27/11 A2989 RMK A01 T02650109  RH  037%=      5-min Rain = 0
KCA1 131554Z 20007KT 27/11 A2989 RMK A01 T02650105  RH  037%=      5-min Rain = 0
KCA1 131555Z 20008KT 26/11 A2989 RMK A01 T02620106  RH  038%=      5-min Rain = 0
KCA1 131556Z 19010KT 26/11 A2989 RMK A01 T02620109  RH  038%=      5-min Rain = 0
KCA1 131557Z 19007KT 26/11 A2989 RMK A01 T02640106  RH  037%=      5-min Rain = 0
KCA1 131558Z 17007KT 27/11 A2989 RMK A01 T02660112  RH  038%=      5-min Rain = 0
KCA1 131559Z 18008KT 27/11 A2989 RMK A01 T02690110  RH  037%=      5-min Rain = 0
KCA1 131600Z 18007KT 27/11 A2989 RMK A01 T02700111  RH  037%=      5-min Rain = 0
KCA1 131601Z 18011KT 27/11 A2989 RMK A01 T02710111  RH  037%=      5-min Rain = 0
KCA1 131602Z 18012KT 27/11 A2989 RMK A01 T02720108  RH  036%=      5-min Rain = 0
KCA1 131603Z 17009KT 27/11 A2989 RMK A01 T02710109  RH  036%=      5-min Rain = 0
KCA1 131604Z 18007KT 27/11 A2989 RMK A01 T02720109  RH  036%=      5-min Rain = 0
KCA1 131605Z 19011KT 27/11 A2989 RMK A01 T02720108  RH  036%=      5-min Rain = 0
KCA1 131606Z 18010KT 27/11 A2989 RMK A01 T02720108  RH  036%=      5-min Rain = 0
KCA1 131607Z 18008KT 27/11 A2989 RMK A01 T02710107  RH  036%=      5-min Rain = 0
KCA1 131608Z 17008KT 27/11 A2989 RMK A01 T02700107  RH  036%=      5-min Rain = 0
KCA1 131609Z 17009KT 27/11 A2989 RMK A01 T02700107  RH  036%=      5-min Rain = 0
KCA1 131610Z 19008KT 27/11 A2989 RMK A01 T02710108  RH  036%=      5-min Rain = 0
KCA1 131611Z 20007KT 27/11 A2989 RMK A01 T02720108  RH  036%=      5-min Rain = 0
KCA1 131612Z 18007KT 27/11 A2989 RMK A01 T02720108  RH  036%=      5-min Rain = 0
KCA1 131613Z 17008KT 27/11 A2989 RMK A01 T02710109  RH  036%=      5-min Rain = 0
KCA1 131614Z 17007KT 27/11 A2989 RMK A01 T02720108  RH  036%=      5-min Rain = 0
KCA1 131615Z 17006KT 27/11 A2989 RMK A01 T02740113  RH  037%=      5-min Rain = 0
KCA1 131616Z 18010KT 28/11 A2989 RMK A01 T02770112  RH  036%=      5-min Rain = 0
KCA1 131617Z 17007KT 28/11 A2989 RMK A01 T02770111  RH  036%=      5-min Rain = 0
KCA1 131618Z 20006KT 28/11 A2989 RMK A01 T02780110  RH  035%=      5-min Rain = 0
KCA1 131619Z 20006KT 28/11 A2989 RMK A01 T02760109  RH  035%=      5-min Rain = 0
KCA1 131620Z 19008KT 28/11 A2989 RMK A01 T02750111  RH  036%=      5-min Rain = 0
KCA1 131621Z 18009KT 28/11 A2989 RMK A01 T02760112  RH  036%=      5-min Rain = 0
KCA1 131622Z 21008KT 28/11 A2989 RMK A01 T02800113  RH  035%=      5-min Rain = 0
KCA1 131623Z 21008KT 28/11 A2988 RMK A01 T02820112  RH  035%=      5-min Rain = 0
KCA1 131624Z 20007KT 28/11 A2988 RMK A01 T02810112  RH  035%=      5-min Rain = 0
KCA1 131625Z 19008KT 28/11 A2988 RMK A01 T02800111  RH  035%=      5-min Rain = 0
KCA1 131626Z 18011KT 28/11 A2988 RMK A01 T02810112  RH  035%=      5-min Rain = 0
KCA1 131627Z 20009KT 28/11 A2988 RMK A01 T02820109  RH  034%=      5-min Rain = 0
KCA1 131628Z 20010KT 28/11 A2988 RMK A01 T02820113  RH  035%=      5-min Rain = 0
KCA1 131629Z 19011KT 28/11 A2988 RMK A01 T02830110  RH  034%=      5-min Rain = 0
KCA1 131630Z 19009KT 28/11 A2988 RMK A01 T02830111  RH  034%=      5-min Rain = 0
KCA1 131631Z 19010KT 28/11 A2988 RMK A01 T02830109  RH  034%=      5-min Rain = 0
KCA1 131632Z 18009KT 28/11 A2988 RMK A01 T02820109  RH  034%=      5-min Rain = 0
KCA1 131633Z 18008KT 28/11 A2988 RMK A01 T02810110  RH  034%=      5-min Rain = 0
KCA1 131634Z 18009KT 28/11 A2988 RMK A01 T02820111  RH  034%=      5-min Rain = 0
KCA1 131635Z 18009KT 29/11 A2988 RMK A01 T02850112  RH  034%=      5-min Rain = 0
KCA1 131636Z 18011KT 29/11 A2988 RMK A01 T02860111  RH  034%=      5-min Rain = 0
KCA1 131637Z 19010KT 29/11 A2988 RMK A01 T02870110  RH  033%=      5-min Rain = 0
KCA1 131638Z 18008KT 29/11 A2988 RMK A01 T02860111  RH  034%=      5-min Rain = 0
KCA1 131639Z 18009KT 29/11 A2988 RMK A01 T02870111  RH  034%=      5-min Rain = 0
KCA1 131640Z 17009KT 29/11 A2988 RMK A01 T02870111  RH  034%=      5-min Rain = 0
KCA1 131641Z 17010KT 29/11 A2988 RMK A01 T02890111  RH  033%=      5-min Rain = 0
KCA1 131642Z 18010KT 29/11 A2988 RMK A01 T02910109  RH  032%=      5-min Rain = 0
KCA1 131643Z 18010KT 29/11 A2988 RMK A01 T02890108  RH  032%=      5-min Rain = 0
KCA1 131644Z 19008KT 29/11 A2988 RMK A01 T02890108  RH  032%=      5-min Rain = 0
KCA1 131645Z 20009KT 29/11 A2988 RMK A01 T02880107  RH  033%=      5-min Rain = 0
KCA1 131646Z 19006KT 29/11 A2988 RMK A01 T02850108  RH  033%=      5-min Rain = 0
KCA1 131647Z 20004KT 29/11 A2988 RMK A01 T02850108  RH  033%=      5-min Rain = 0
KCA1 131648Z 18008KT 29/11 A2988 RMK A01 T02850110  RH  034%=      5-min Rain = 0
KCA1 131649Z 18011KT 29/11 A2988 RMK A01 T02880109  RH  033%=      5-min Rain = 0
KCA1 131650Z 18011KT 29/11 A2988 RMK A01 T02900108  RH  032%=      5-min Rain = 0
KCA1 131651Z 17009KT 29/11 A2988 RMK A01 T02920109  RH  032%=      5-min Rain = 0
KCA1 131652Z 18010KT 29/11 A2988 RMK A01 T02940111  RH  032%=      5-min Rain = 0
KCA1 131653Z 18008KT 29/11 A2988 RMK A01 T02940109  RH  032%=      5-min Rain = 0
KCA1 131654Z 18007KT 29/11 A2988 RMK A01 T02910110  RH  032%=      5-min Rain = 0
KCA1 131655Z 17008G14KT 29/11 A2988 RMK A01 T02910113  RH  033%=      5-min Rain = 0
KCA1 131656Z 19011KT 30/11 A2988 RMK A01 T02950114  RH  033%=      5-min Rain = 0
KCA1 131657Z 20009KT 30/11 A2988 RMK A01 T02960112  RH  032%=      5-min Rain = 0
KCA1 131658Z 20010KT 30/11 A2988 RMK A01 T02960112  RH  032%=      5-min Rain = 0
KCA1 131659Z 21010KT 30/11 A2988 RMK A01 T02960112  RH  032%=      5-min Rain = 0
KCA1 131700Z 23007KT 30/11 A2987 RMK A01 T02950109  RH  032%=      5-min Rain = 0
KCA1 131701Z 18007G13KT 29/11 A2987 RMK A01 T02930111  RH  032%=      5-min Rain = 0
KCA1 131702Z 18009KT 29/11 A2987 RMK A01 T02940111  RH  032%=      5-min Rain = 0
KCA1 131703Z 18012KT 30/11 A2987 RMK A01 T02950109  RH  032%=      5-min Rain = 0
KCA1 131704Z 18011KT 30/11 A2987 RMK A01 T02960109  RH  031%=      5-min Rain = 0
KCA1 131705Z 18009KT 30/11 A2987 RMK A01 T02960110  RH  032%=      5-min Rain = 0
KCA1 131706Z 17010KT 30/11 A2987 RMK A01 T02960112  RH  032%=      5-min Rain = 0
KCA1 131707Z 18012KT 30/11 A2987 RMK A01 T02980113  RH  032%=      5-min Rain = 0
KCA1 131708Z 19009KT 30/11 A2987 RMK A01 T02990112  RH  031%=      5-min Rain = 0
KCA1 131709Z 17008KT 30/11 A2987 RMK A01 T02990113  RH  032%=      5-min Rain = 0
KCA1 131710Z 18010KT 30/11 A2987 RMK A01 T02990112  RH  032%=      5-min Rain = 0
KCA1 131711Z 19010G15KT 30/11 A2987 RMK A01 T03000114  RH  032%=      5-min Rain = 0
KCA1 131712Z 18013KT 30/11 A2987 RMK A01 T03010112  RH  031%=      5-min Rain = 0
KCA1 131713Z 19010KT 30/11 A2987 RMK A01 T02990110  RH  031%=      5-min Rain = 0
KCA1 131714Z 17008KT 30/11 A2987 RMK A01 T02980113  RH  032%=      5-min Rain = 0
KCA1 131715Z 18009KT 30/11 A2987 RMK A01 T03000113  RH  031%=      5-min Rain = 0
KCA1 131716Z 19007KT 30/12 A2987 RMK A01 T03020115  RH  032%=      5-min Rain = 0
KCA1 131717Z 18007KT 30/12 A2987 RMK A01 T03040116  RH  031%=      5-min Rain = 0
KCA1 131718Z 18011KT 31/12 A2987 RMK A01 T03050116  RH  031%=      5-min Rain = 0
KCA1 131719Z 17010KT 31/12 A2987 RMK A01 T03060115  RH  031%=      5-min Rain = 0
KCA1 131720Z 18010KT 31/11 A2987 RMK A01 T03060114  RH  031%=      5-min Rain = 0
KCA1 131721Z 18009KT 31/11 A2987 RMK A01 T03050113  RH  031%=      5-min Rain = 0
KCA1 131722Z 18009KT 30/11 A2987 RMK A01 T03030113  RH  031%=      5-min Rain = 0
KCA1 131723Z 18010KT 30/11 A2987 RMK A01 T03020112  RH  031%=      5-min Rain = 0
KCA1 131724Z 20010KT 30/11 A2987 RMK A01 T02990112  RH  031%=      5-min Rain = 0
KCA1 131725Z 20008KT 30/11 A2987 RMK A01 T02990113  RH  032%=      5-min Rain = 0
KCA1 131726Z 20008KT 30/11 A2987 RMK A01 T02980113  RH  032%=      5-min Rain = 0
KCA1 131727Z 16007KT 30/11 A2987 RMK A01 T02980114  RH  032%=      5-min Rain = 0
KCA1 131728Z 17009KT 30/11 A2987 RMK A01 T02990114  RH  032%=      5-min Rain = 0
KCA1 131729Z 17008KT 30/12 A2987 RMK A01 T03030116  RH  032%=      5-min Rain = 0
KCA1 131730Z 19005KT 31/12 A2987 RMK A01 T03070118  RH  031%=      5-min Rain = 0
KCA1 131731Z 20007KT 31/12 A2987 RMK A01 T03090117  RH  031%=      5-min Rain = 0
KCA1 131732Z 18009KT 31/12 A2987 RMK A01 T03100117  RH  031%=      5-min Rain = 0
KCA1 131733Z 17006KT 31/12 A2987 RMK A01 T03090116  RH  031%=      5-min Rain = 0
KCA1 131734Z 18009KT 31/12 A2987 RMK A01 T03080117  RH  031%=      5-min Rain = 0
KCA1 131735Z 19011KT 31/12 A2987 RMK A01 T03080116  RH  031%=      5-min Rain = 0
KCA1 131736Z 19009KT 31/12 A2987 RMK A01 T03070115  RH  031%=      5-min Rain = 0
KCA1 131737Z 18010KT 31/12 A2987 RMK A01 T03060116  RH  031%=      5-min Rain = 0
KCA1 131738Z 19010KT 31/12 A2987 RMK A01 T03050115  RH  031%=      5-min Rain = 0
KCA1 131739Z 19008KT 30/12 A2987 RMK A01 T03040115  RH  031%=      5-min Rain = 0
KCA1 131740Z 19008KT 30/12 A2986 RMK A01 T03030116  RH  032%=      5-min Rain = 0
KCA1 131741Z 19008KT 30/12 A2986 RMK A01 T03040116  RH  031%=      5-min Rain = 0
KCA1 131742Z 19008KT 31/12 A2986 RMK A01 T03050116  RH  031%=      5-min Rain = 0
KCA1 131743Z 17010KT 31/12 A2986 RMK A01 T03060119  RH  032%=      5-min Rain = 0
KCA1 131744Z 17009KT 31/12 A2986 RMK A01 T03080116  RH  031%=      5-min Rain = 0
KCA1 131745Z 16008KT 31/12 A2986 RMK A01 T03070117  RH  031%=      5-min Rain = 0
KCA1 131746Z 16007G12KT 31/12 A2986 RMK A01 T03060115  RH  031%=      5-min Rain = 0
KCA1 131747Z 17011KT 31/12 A2986 RMK A01 T03060117  RH  031%=      5-min Rain = 0
KCA1 131748Z 18011KT 31/12 A2986 RMK A01 T03080117  RH  031%=      5-min Rain = 0
KCA1 131749Z 20008KT 31/12 A2986 RMK A01 T03080115  RH  031%=      5-min Rain = 0
KCA1 131750Z 20003KT 31/12 A2986 RMK A01 T03060115  RH  031%=      5-min Rain = 0
KCA1 131751Z 19003KT 30/12 A2986 RMK A01 T03040116  RH  031%=      5-min Rain = 0
KCA1 131752Z 17004KT 30/12 A2986 RMK A01 T03040115  RH  031%=      5-min Rain = 0
KCA1 131753Z 18007KT 30/12 A2986 RMK A01 T03040116  RH  031%=      5-min Rain = 0
KCA1 131754Z 17006KT 31/12 A2986 RMK A01 T03070118  RH  031%=      5-min Rain = 0
KCA1 131755Z 16005KT 31/12 A2986 RMK A01 T03090117  RH  031%=      5-min Rain = 0
KCA1 131756Z 15007KT 31/12 A2986 RMK A01 T03100118  RH  031%=      5-min Rain = 0
KCA1 131757Z 20007KT 31/12 A2986 RMK A01 T03120120  RH  031%=      5-min Rain = 0
KCA1 131758Z 19010KT 31/12 A2986 RMK A01 T03140119  RH  030%=      5-min Rain = 0
KCA1 131759Z 21006KT 31/12 A2986 RMK A01 T03140119  RH  030%=      5-min Rain = 0
KCA1 131800Z 20008KT 31/12 A2986 RMK A01 T03130117  RH  030%=      5-min Rain = 0
KCA1 131801Z 18007KT 31/12 A2986 RMK A01 T03110117  RH  030%=      5-min Rain = 0
KCA1 131802Z 16006KT 31/12 A2986 RMK A01 T03100117  RH  031%=      5-min Rain = 0
KCA1 131803Z 18004KT 31/12 A2986 RMK A01 T03080116  RH  031%=      5-min Rain = 0
KCA1 131804Z 18001KT 31/12 A2986 RMK A01 T03070115  RH  031%=      5-min Rain = 0
KCA1 131805Z 16006KT 31/12 A2986 RMK A01 T03050117  RH  031%=      5-min Rain = 0
KCA1 131806Z 18010KT 31/12 A2986 RMK A01 T03080119  RH  031%=      5-min Rain = 0
KCA1 131807Z 18008KT 31/12 A2986 RMK A01 T03110118  RH  031%=      5-min Rain = 0
KCA1 131808Z 16005KT 31/12 A2986 RMK A01 T03100117  RH  031%=      5-min Rain = 0
KCA1 131809Z 16006KT 31/12 A2986 RMK A01 T03100117  RH  031%=      5-min Rain = 0
KCA1 131810Z 18007KT 31/12 A2986 RMK A01 T03110119  RH  031%=      5-min Rain = 0
KCA1 131811Z 18008KT 31/12 A2986 RMK A01 T03120117  RH  030%=      5-min Rain = 0
KCA1 131812Z 18006KT 31/12 A2986 RMK A01 T03110116  RH  030%=      5-min Rain = 0
KCA1 131813Z 19005KT 31/12 A2986 RMK A01 T03100117  RH  031%=      5-min Rain = 0
KCA1 131814Z 19006KT 31/12 A2986 RMK A01 T03110116  RH  030%=      5-min Rain = 0
KCA1 131815Z 16005KT 31/12 A2986 RMK A01 T03100116  RH  030%=      5-min Rain = 0
KCA1 131816Z 17007KT 31/12 A2985 RMK A01 T03090118  RH  031%=      5-min Rain = 0
KCA1 131817Z 18003KT 31/12 A2985 RMK A01 T03110117  RH  030%=      5-min Rain = 0
KCA1 131818Z 19010KT 31/12 A2985 RMK A01 T03120120  RH  031%=      5-min Rain = 0
KCA1 131819Z 18009KT 32/12 A2985 RMK A01 T03160119  RH  030%=      5-min Rain = 0
KCA1 131820Z 17005KT 32/12 A2985 RMK A01 T03170119  RH  030%=      5-min Rain = 0
KCA1 131821Z 16005KT 32/12 A2985 RMK A01 T03170117  RH  029%=      5-min Rain = 0
KCA1 131822Z 19006KT 32/12 A2985 RMK A01 T03150119  RH  030%=      5-min Rain = 0
KCA1 131823Z 21007KT 32/12 A2985 RMK A01 T03150116  RH  029%=      5-min Rain = 0
KCA1 131824Z 21006KT 31/12 A2985 RMK A01 T03130116  RH  030%=      5-min Rain = 0
KCA1 131825Z 20007KT 31/12 A2985 RMK A01 T03130118  RH  030%=      5-min Rain = 0
KCA1 131826Z 21007KT 32/12 A2985 RMK A01 T03150118  RH  030%=      5-min Rain = 0
KCA1 131827Z 16007KT 32/12 A2985 RMK A01 T03160120  RH  030%=      5-min Rain = 0
KCA1 131828Z 17012KT 32/12 A2985 RMK A01 T03180119  RH  030%=      5-min Rain = 0
KCA1 131829Z 18008KT 32/12 A2985 RMK A01 T03190117  RH  029%=      5-min Rain = 0
KCA1 131830Z 17006KT 32/12 A2985 RMK A01 T03180116  RH  029%=      5-min Rain = 0
KCA1 131831Z 16006KT 32/12 A2985 RMK A01 T03170116  RH  029%=      5-min Rain = 0
KCA1 131832Z 17004KT 32/12 A2985 RMK A01 T03160115  RH  029%=      5-min Rain = 0
KCA1 131833Z 18004KT 32/12 A2984 RMK A01 T03150115  RH  029%=      5-min Rain = 0
KCA1 131834Z 19005KT 31/12 A2984 RMK A01 T03140116  RH  030%=      5-min Rain = 0
KCA1 131835Z 16005KT 32/12 A2984 RMK A01 T03150117  RH  030%=      5-min Rain = 0
KCA1 131836Z 16008KT 32/12 A2984 RMK A01 T03180117  RH  029%=      5-min Rain = 0
KCA1 131837Z 17011KT 32/12 A2984 RMK A01 T03200120  RH  029%=      5-min Rain = 0
KCA1 131838Z 16009KT 32/12 A2984 RMK A01 T03240118  RH  028%=      5-min Rain = 0
KCA1 131839Z 17007KT 33/12 A2984 RMK A01 T03250117  RH  028%=      5-min Rain = 0
KCA1 131840Z 18004KT 32/12 A2984 RMK A01 T03230117  RH  028%=      5-min Rain = 0
KCA1 131841Z 12005KT 32/12 A2984 RMK A01 T03210115  RH  028%=      5-min Rain = 0
KCA1 131842Z 17006KT 32/12 A2984 RMK A01 T03190115  RH  029%=      5-min Rain = 0
KCA1 131843Z 21006KT 32/12 A2984 RMK A01 T03170115  RH  029%=      5-min Rain = 0
KCA1 131844Z 18005KT 32/12 A2984 RMK A01 T03170118  RH  030%=      5-min Rain = 0
KCA1 131845Z 17008KT 32/12 A2984 RMK A01 T03220122  RH  030%=      5-min Rain = 0
KCA1 131846Z 17005KT 33/12 A2984 RMK A01 T03260118  RH  028%=      5-min Rain = 0
KCA1 131847Z 18008G13KT 33/12 A2984 RMK A01 T03260118  RH  028%=      5-min Rain = 0
KCA1 131848Z 18010KT 33/12 A2984 RMK A01 T03250118  RH  028%=      5-min Rain = 0
KCA1 131849Z 18008KT 32/12 A2984 RMK A01 T03240116  RH  028%=      5-min Rain = 0
KCA1 131850Z 20007KT 32/12 A2984 RMK A01 T03220116  RH  028%=      5-min Rain = 0
KCA1 131851Z 24005KT 32/12 A2984 RMK A01 T03190116  RH  029%=      5-min Rain = 0
KCA1 131852Z 24003KT 32/12 A2984 RMK A01 T03190117  RH  029%=      5-min Rain = 0
KCA1 131853Z 22002KT 32/12 A2984 RMK A01 T03190116  RH  029%=      5-min Rain = 0
KCA1 131854Z 15005KT 32/12 A2984 RMK A01 T03200117  RH  029%=      5-min Rain = 0
KCA1 131855Z 10002KT 32/12 A2984 RMK A01 T03220116  RH  028%=      5-min Rain = 0
KCA1 131856Z 08001KT 32/11 A2984 RMK A01 T03210114  RH  028%=      5-min Rain = 0
KCA1 131857Z 16005KT 32/12 A2984 RMK A01 T03180116  RH  029%=      5-min Rain = 0
KCA1 131858Z 18005KT 32/12 A2984 RMK A01 T03180116  RH  029%=      5-min Rain = 0
KCA1 131859Z 18008G13KT 32/12 A2984 RMK A01 T03190117  RH  029%=      5-min Rain = 0
KCA1 131900Z 16011KT 32/12 A2984 RMK A01 T03210119  RH  029%=      5-min Rain = 0
KCA1 131901Z 14007KT 32/12 A2984 RMK A01 T03230117  RH  028%=      5-min Rain = 0
KCA1 131902Z 16007KT 32/12 A2984 RMK A01 T03220118  RH  029%=      5-min Rain = 0
KCA1 131903Z 14007KT 32/12 A2984 RMK A01 T03230119  RH  029%=      5-min Rain = 0
KCA1 131904Z 13007KT 33/12 A2984 RMK A01 T03250118  RH  028%=      5-min Rain = 0
KCA1 131905Z 19007KT 32/12 A2983 RMK A01 T03240119  RH  029%=      5-min Rain = 0
KCA1 131906Z 19007KT 33/12 A2983 RMK A01 T03250118  RH  028%=      5-min Rain = 0
KCA1 131907Z 19006KT 33/12 A2983 RMK A01 T03260120  RH  028%=      5-min Rain = 0
KCA1 131908Z 18008KT 33/12 A2983 RMK A01 T03300121  RH  028%=      5-min Rain = 0
KCA1 131909Z 17007KT 33/12 A2983 RMK A01 T03330123  RH  028%=      5-min Rain = 0
KCA1 131910Z 16009KT 34/12 A2983 RMK A01 T03360121  RH  027%=      5-min Rain = 0
KCA1 131911Z 13008KT 33/12 A2983 RMK A01 T03340119  RH  027%=      5-min Rain = 0
KCA1 131912Z 12004KT 33/12 A2983 RMK A01 T03300119  RH  028%=      5-min Rain = 0
KCA1 131913Z 17006KT 33/12 A2983 RMK A01 T03280119  RH  028%=      5-min Rain = 0
KCA1 131914Z 16005KT 33/12 A2983 RMK A01 T03300118  RH  028%=      5-min Rain = 0
KCA1 131915Z 15006KT 33/12 A2983 RMK A01 T03290117  RH  028%=      5-min Rain = 0
KCA1 131916Z 17010KT 33/12 A2983 RMK A01 T03300122  RH  028%=      5-min Rain = 0
KCA1 131917Z 18009KT 34/12 A2983 RMK A01 T03350120  RH  027%=      5-min Rain = 0
KCA1 131918Z 18007KT 34/12 A2983 RMK A01 T03350121  RH  027%=      5-min Rain = 0
KCA1 131919Z 16009KT 34/12 A2983 RMK A01 T03360120  RH  027%=      5-min Rain = 0
KCA1 131920Z 17010KT 34/12 A2983 RMK A01 T03370123  RH  027%=      5-min Rain = 0
KCA1 131921Z 16009KT 34/12 A2983 RMK A01 T03390120  RH  027%=      5-min Rain = 0
KCA1 131922Z 16007KT 34/12 A2983 RMK A01 T03370119  RH  027%=      5-min Rain = 0
KCA1 131923Z 15008G14KT 34/12 A2983 RMK A01 T03350120  RH  027%=      5-min Rain = 0
KCA1 131924Z 15008KT 33/12 A2983 RMK A01 T03340118  RH  027%=      5-min Rain = 0
KCA1 131925Z 15009KT 33/12 A2983 RMK A01 T03330120  RH  027%=      5-min Rain = 0
KCA1 131926Z 15011KT 33/12 A2982 RMK A01 T03340119  RH  027%=      5-min Rain = 0
KCA1 131927Z 16008KT 33/12 A2982 RMK A01 T03330118  RH  027%=      5-min Rain = 0
KCA1 131928Z 15007KT 33/12 A2982 RMK A01 T03310119  RH  027%=      5-min Rain = 0
KCA1 131929Z 15007KT 33/12 A2982 RMK A01 T03310119  RH  027%=      5-min Rain = 0
KCA1 131930Z 15003KT 33/12 A2982 RMK A01 T03300118  RH  027%=      5-min Rain = 0
KCA1 131931Z 16007KT 33/12 A2982 RMK A01 T03310119  RH  027%=      5-min Rain = 0
KCA1 131932Z 16007KT 33/12 A2982 RMK A01 T03320120  RH  028%=      5-min Rain = 0
KCA1 131933Z 17010KT 33/12 A2982 RMK A01 T03330120  RH  027%=      5-min Rain = 0
KCA1 131934Z 18009KT 33/12 A2982 RMK A01 T03330120  RH  027%=      5-min Rain = 0
KCA1 131935Z 20007KT 33/12 A2982 RMK A01 T03330118  RH  027%=      5-min Rain = 0
KCA1 131936Z 18006KT 33/12 A2982 RMK A01 T03310120  RH  028%=      5-min Rain = 0
KCA1 131937Z 16002KT 33/12 A2982 RMK A01 T03310118  RH  027%=      5-min Rain = 0
KCA1 131938Z 24005KT 33/12 A2982 RMK A01 T03300120  RH  028%=      5-min Rain = 0
KCA1 131939Z 24005KT 33/12 A2982 RMK A01 T03310119  RH  028%=      5-min Rain = 0
KCA1 131940Z 18005KT 33/12 A2982 RMK A01 T03310120  RH  028%=      5-min Rain = 0
KCA1 131941Z 17009KT 33/12 A2982 RMK A01 T03330122  RH  028%=      5-min Rain = 0
KCA1 131942Z 16009KT 34/12 A2982 RMK A01 T03350118  RH  027%=      5-min Rain = 0
KCA1 131943Z 15010KT 33/12 A2982 RMK A01 T03330119  RH  027%=      5-min Rain = 0
KCA1 131944Z 15008KT 33/12 A2982 RMK A01 T03330118  RH  027%=      5-min Rain = 0
KCA1 131945Z 16009KT 33/12 A2982 RMK A01 T03320118  RH  027%=      5-min Rain = 0
KCA1 131946Z 18007KT 33/12 A2982 RMK A01 T03320119  RH  027%=      5-min Rain = 0
KCA1 131947Z 21005KT 33/12 A2982 RMK A01 T03340118  RH  027%=      5-min Rain = 0
KCA1 131948Z 19004KT 33/12 A2982 RMK A01 T03340118  RH  027%=      5-min Rain = 0
KCA1 131949Z 18003KT 33/12 A2982 RMK A01 T03340119  RH  027%=      5-min Rain = 0
KCA1 131950Z 16007KT 34/12 A2981 RMK A01 T03350119  RH  027%=      5-min Rain = 0
KCA1 131951Z 15012KT 34/12 A2981 RMK A01 T03370119  RH  027%=      5-min Rain = 0
KCA1 131952Z 15011KT 34/12 A2981 RMK A01 T03370118  RH  026%=      5-min Rain = 0
KCA1 131953Z 15010KT 33/12 A2981 RMK A01 T03340118  RH  027%=      5-min Rain = 0
KCA1 131954Z 14009KT 33/12 A2981 RMK A01 T03330118  RH  027%=      5-min Rain = 0
KCA1 131955Z 14008KT 33/12 A2981 RMK A01 T03330118  RH  027%=      5-min Rain = 0
KCA1 131956Z 18006KT 33/12 A2981 RMK A01 T03310118  RH  027%=      5-min Rain = 0
KCA1 131957Z 20006KT 33/12 A2981 RMK A01 T03310117  RH  027%=      5-min Rain = 0
KCA1 131958Z 18009KT 33/12 A2981 RMK A01 T03310118  RH  027%=      5-min Rain = 0
KCA1 131959Z 20010KT 34/12 A2981 RMK A01 T03350118  RH  027%=      5-min Rain = 0
KCA1 132000Z 19008KT 34/12 A2981 RMK A01 T03370119  RH  027%=      5-min Rain = 0
KCA1 132001Z 20008KT 34/12 A2981 RMK A01 T03390118  RH  026%=      5-min Rain = 0
KCA1 132002Z 20007KT 34/12 A2981 RMK A01 T03390116  RH  026%=      5-min Rain = 0
KCA1 132003Z 21006KT 34/12 A2981 RMK A01 T03370117  RH  026%=      5-min Rain = 0
KCA1 132004Z 21005KT 34/12 A2981 RMK A01 T03360116  RH  026%=      5-min Rain = 0
KCA1 132005Z 21004KT 33/11 A2981 RMK A01 T03330114  RH  026%=      5-min Rain = 0
KCA1 132006Z 19002KT 33/12 A2981 RMK A01 T03310115  RH  027%=      5-min Rain = 0
KCA1 132007Z 19003G9KT 33/12 A2981 RMK A01 T03310115  RH  027%=      5-min Rain = 0
KCA1 132008Z 19006KT 33/12 A298 RMK A01 T03320116  RH  027%=      5-min Rain = 0
KCA1 132009Z 20009KT 33/12 A298 RMK A01 T03330116  RH  027%=      5-min Rain = 0
KCA1 132010Z 20009KT 34/12 A298 RMK A01 T03350118  RH  027%=      5-min Rain = 0
KCA1 132011Z 21006KT 34/12 A298 RMK A01 T03380118  RH  026%=      5-min Rain = 0
KCA1 132012Z 22007KT 34/12 A298 RMK A01 T03390117  RH  026%=      5-min Rain = 0
KCA1 132013Z 22008KT 34/11 A298 RMK A01 T03360114  RH  026%=      5-min Rain = 0
KCA1 132014Z 22006KT 34/12 A298 RMK A01 T03350116  RH  026%=      5-min Rain = 0
KCA1 132015Z 16006KT 33/12 A298 RMK A01 T03340116  RH  026%=      5-min Rain = 0
KCA1 132016Z 17007KT 33/12 A298 RMK A01 T03340117  RH  027%=      5-min Rain = 0
KCA1 132017Z 18006KT 34/12 A298 RMK A01 T03390119  RH  026%=      5-min Rain = 0
KCA1 132018Z 20005KT 34/12 A298 RMK A01 T03420117  RH  026%=      5-min Rain = 0
KCA1 132019Z 18007KT 34/12 A298 RMK A01 T03410119  RH  026%=      5-min Rain = 0
KCA1 132020Z 16008KT 34/12 A298 RMK A01 T03420117  RH  026%=      5-min Rain = 0
KCA1 132021Z 18006KT 34/12 A298 RMK A01 T03410117  RH  026%=      5-min Rain = 0
KCA1 132022Z 15005KT 34/12 A298 RMK A01 T03390116  RH  026%=      5-min Rain = 0
KCA1 132023Z 14006KT 34/12 A298 RMK A01 T03390117  RH  026%=      5-min Rain = 0
KCA1 132024Z 14006KT 34/12 A298 RMK A01 T03380116  RH  026%=      5-min Rain = 0
KCA1 132025Z 15007G12KT 34/12 A298 RMK A01 T03380119  RH  026%=      5-min Rain = 0
KCA1 132026Z 15008KT 34/12 A298 RMK A01 T03410118  RH  026%=      5-min Rain = 0
KCA1 132027Z 16010KT 34/12 A298 RMK A01 T03400117  RH  026%=      5-min Rain = 0
KCA1 132028Z 16008KT 34/12 A298 RMK A01 T03380116  RH  026%=      5-min Rain = 0
KCA1 132029Z 17006KT 34/12 A298 RMK A01 T03350115  RH  026%=      5-min Rain = 0
KCA1 132030Z 17007KT 34/12 A298 RMK A01 T03350116  RH  026%=      5-min Rain = 0
KCA1 132031Z 16005KT 34/12 A298 RMK A01 T03350116  RH  026%=      5-min Rain = 0
KCA1 132032Z 14008KT 34/12 A298 RMK A01 T03350118  RH  027%=      5-min Rain = 0
KCA1 132033Z 15008KT 34/12 A298 RMK A01 T03370118  RH  026%=      5-min Rain = 0
KCA1 132034Z 15006KT 34/12 A298 RMK A01 T03390118  RH  026%=      5-min Rain = 0
KCA1 132035Z 15007KT 34/12 A298 RMK A01 T03400118  RH  026%=      5-min Rain = 0
KCA1 132036Z 19008KT 34/12 A298 RMK A01 T03400119  RH  026%=      5-min Rain = 0
KCA1 132037Z 18008KT 34/12 A298 RMK A01 T03390120  RH  026%=      5-min Rain = 0
KCA1 132038Z 19012KT 34/12 A298 RMK A01 T03410119  RH  026%=      5-min Rain = 0
KCA1 132039Z 19008KT 34/12 A298 RMK A01 T03410117  RH  026%=      5-min Rain = 0
KCA1 132040Z 20005KT 34/12 A298 RMK A01 T03380116  RH  026%=      5-min Rain = 0
KCA1 132041Z 19006KT 34/12 A298 RMK A01 T03380119  RH  026%=      5-min Rain = 0
KCA1 132042Z 17008KT 34/12 A298 RMK A01 T03420119  RH  026%=      5-min Rain = 0
KCA1 132043Z 17007KT 34/12 A298 RMK A01 T03420117  RH  026%=      5-min Rain = 0
KCA1 132044Z 18006KT 34/12 A298 RMK A01 T03400116  RH  026%=      5-min Rain = 0
KCA1 132045Z 19005KT 34/12 A298 RMK A01 T03390117  RH  026%=      5-min Rain = 0
KCA1 132046Z 16005KT 34/12 A298 RMK A01 T03380119  RH  026%=      5-min Rain = 0
KCA1 132047Z 15004KT 34/12 A298 RMK A01 T03390119  RH  026%=      5-min Rain = 0
KCA1 132048Z 14005KT 34/12 A298 RMK A01 T03400119  RH  026%=      5-min Rain = 0
KCA1 132049Z 14010KT 34/12 A298 RMK A01 T03420121  RH  026%=      5-min Rain = 0
KCA1 132050Z 15014KT 34/12 A2979 RMK A01 T03440120  RH  026%=      5-min Rain = 0
KCA1 132051Z 14013KT 34/12 A2979 RMK A01 T03420118  RH  026%=      5-min Rain = 0
KCA1 132052Z 15010KT 34/12 A2979 RMK A01 T03380119  RH  027%=      5-min Rain = 0
KCA1 132053Z 16010KT 34/12 A2979 RMK A01 T03370121  RH  027%=      5-min Rain = 0
KCA1 132054Z 20008KT 34/12 A2979 RMK A01 T03380120  RH  027%=      5-min Rain = 0
KCA1 132055Z 19007KT 34/12 A2979 RMK A01 T03380119  RH  026%=      5-min Rain = 0
KCA1 132056Z 18006KT 34/12 A2979 RMK A01 T03390123  RH  027%=      5-min Rain = 0
KCA1 132057Z 15010KT 34/12 A2979 RMK A01 T03430123  RH  026%=      5-min Rain = 0
KCA1 132058Z 14009KT 34/12 A2979 RMK A01 T03430121  RH  026%=      5-min Rain = 0
KCA1 132059Z 14009KT 34/12 A2979 RMK A01 T03430121  RH  026%=      5-min Rain = 0
KCA1 132100Z 16009G15KT 34/12 A2979 RMK A01 T03420121  RH  026%=      5-min Rain = 0
KCA1 132101Z 15005G10KT 34/12 A2979 RMK A01 T03420122  RH  026%=      5-min Rain = 0
KCA1 132102Z 15011KT 34/12 A2979 RMK A01 T03440124  RH  026%=      5-min Rain = 0
KCA1 132103Z 15009KT 35/12 A2979 RMK A01 T03460124  RH  026%=      5-min Rain = 0
KCA1 132104Z 15009KT 35/12 A2979 RMK A01 T03450123  RH  026%=      5-min Rain = 0
KCA1 132105Z 14010KT 34/12 A2979 RMK A01 T03440124  RH  026%=      5-min Rain = 0
KCA1 132106Z 15010KT 34/12 A2979 RMK A01 T03430123  RH  026%=      5-min Rain = 0
KCA1 132107Z 15009KT 34/12 A2979 RMK A01 T03410122  RH  026%=      5-min Rain = 0
KCA1 132108Z 16008KT 34/12 A2979 RMK A01 T03400124  RH  027%=      5-min Rain = 0
KCA1 132109Z 18008KT 34/13 A2979 RMK A01 T03400126  RH  027%=      5-min Rain = 0
KCA1 132110Z 20009KT 34/13 A2979 RMK A01 T03440127  RH  027%=      5-min Rain = 0
KCA1 132111Z 16008KT 35/13 A2979 RMK A01 T03460128  RH  027%=      5-min Rain = 0
KCA1 132112Z 17012KT 35/13 A2979 RMK A01 T03490128  RH  026%=      5-min Rain = 0
KCA1 132113Z 18012KT 35/13 A2979 RMK A01 T03480125  RH  026%=      5-min Rain = 0
KCA1 132114Z 19009G14KT 35/12 A2979 RMK A01 T03460124  RH  026%=      5-min Rain = 0
KCA1 132115Z 19006KT 34/12 A2979 RMK A01 T03430122  RH  026%=      5-min Rain = 0
KCA1 132116Z 16007KT 34/12 A2979 RMK A01 T03410124  RH  027%=      5-min Rain = 0
KCA1 132117Z 16010KT 34/12 A2979 RMK A01 T03410124  RH  027%=      5-min Rain = 0
KCA1 132118Z 16009KT 34/12 A2979 RMK A01 T03420123  RH  027%=      5-min Rain = 0
KCA1 132119Z 14008KT 34/12 A2979 RMK A01 T03420122  RH  026%=      5-min Rain = 0
KCA1 132120Z 14008KT 34/12 A2979 RMK A01 T03390122  RH  027%=      5-min Rain = 0
KCA1 132121Z 17007KT 34/12 A2979 RMK A01 T03390123  RH  027%=      5-min Rain = 0
KCA1 132122Z 17006KT 34/12 A2979 RMK A01 T03370121  RH  027%=      5-min Rain = 0
KCA1 132123Z 14008KT 34/12 A2979 RMK A01 T03360123  RH  027%=      5-min Rain = 0
KCA1 132124Z 14008KT 34/12 A2979 RMK A01 T03380123  RH  027%=      5-min Rain = 0
KCA1 132125Z 12007KT 34/12 A2979 RMK A01 T03400123  RH  027%=      5-min Rain = 0
KCA1 132126Z 16006G12KT 34/12 A2979 RMK A01 T03380123  RH  027%=      5-min Rain = 0
KCA1 132127Z 17010KT 34/12 A2979 RMK A01 T03390124  RH  027%=      5-min Rain = 0
KCA1 132128Z 16010KT 34/12 A2979 RMK A01 T03410123  RH  027%=      5-min Rain = 0
KCA1 132129Z 16010KT 34/12 A2979 RMK A01 T03400123  RH  027%=      5-min Rain = 0
KCA1 132130Z 14005KT 34/12 A2979 RMK A01 T03390122  RH  027%=      5-min Rain = 0
KCA1 132131Z 12007KT 34/12 A2979 RMK A01 T03370121  RH  027%=      5-min Rain = 0
KCA1 132132Z 13006KT 34/12 A2978 RMK A01 T03360123  RH  027%=      5-min Rain = 0
KCA1 132133Z 17007KT 34/13 A2978 RMK A01 T03370125  RH  028%=      5-min Rain = 0
KCA1 132134Z 18004KT 34/12 A2978 RMK A01 T03400123  RH  027%=      5-min Rain = 0
KCA1 132135Z 16006KT 34/12 A2978 RMK A01 T03410122  RH  027%=      5-min Rain = 0
KCA1 132136Z 16006G11KT 34/12 A2978 RMK A01 T03400123  RH  027%=      5-min Rain = 0
KCA1 132137Z 15008KT 34/12 A2978 RMK A01 T03400123  RH  027%=      5-min Rain = 0
KCA1 132138Z 15008KT 34/12 A2978 RMK A01 T03390123  RH  027%=      5-min Rain = 0
KCA1 132139Z 15011KT 34/13 A2978 RMK A01 T03390125  RH  027%=      5-min Rain = 0
KCA1 132140Z 15010KT 34/12 A2978 RMK A01 T03400124  RH  027%=      5-min Rain = 0
KCA1 132141Z 15012KT 34/12 A2978 RMK A01 T03400124  RH  027%=      5-min Rain = 0
KCA1 132142Z 14010KT 34/12 A2978 RMK A01 T03400123  RH  027%=      5-min Rain = 0
KCA1 132143Z 16009KT 34/12 A2978 RMK A01 T03390123  RH  027%=      5-min Rain = 0
KCA1 132144Z 18011KT 34/12 A2978 RMK A01 T03400124  RH  027%=      5-min Rain = 0
KCA1 132145Z 18011KT 34/12 A2978 RMK A01 T03420124  RH  027%=      5-min Rain = 0
KCA1 132146Z 17012KT 34/12 A2978 RMK A01 T03420124  RH  027%=      5-min Rain = 0
KCA1 132147Z 17011KT 34/12 A2978 RMK A01 T03410123  RH  027%=      5-min Rain = 0
KCA1 132148Z 18010KT 34/12 A2978 RMK A01 T03410123  RH  027%=      5-min Rain = 0
KCA1 132149Z 17007KT 34/12 A2978 RMK A01 T03400122  RH  027%=      5-min Rain = 0
KCA1 132150Z 17008KT 34/12 A2978 RMK A01 T03400124  RH  027%=      5-min Rain = 0
KCA1 132151Z 16008KT 34/12 A2978 RMK A01 T03410124  RH  027%=      5-min Rain = 0
KCA1 132152Z 16007KT 34/12 A2978 RMK A01 T03420122  RH  026%=      5-min Rain = 0
KCA1 132153Z 17008KT 34/12 A2978 RMK A01 T03420123  RH  026%=      5-min Rain = 0
KCA1 132154Z 16006KT 34/12 A2978 RMK A01 T03400122  RH  027%=      5-min Rain = 0
KCA1 132155Z 18008KT 34/12 A2978 RMK A01 T03400123  RH  027%=      5-min Rain = 0
KCA1 132156Z 15008KT 34/13 A2978 RMK A01 T03390125  RH  027%=      5-min Rain = 0
KCA1 132157Z 18010KT 34/12 A2978 RMK A01 T03410123  RH  027%=      5-min Rain = 0
KCA1 132158Z 16007KT 34/12 A2978 RMK A01 T03410123  RH  027%=      5-min Rain = 0
KCA1 132159Z 15008KT 34/12 A2978 RMK A01 T03420123  RH  027%=      5-min Rain = 0
KCA1 132200Z 15010KT 34/12 A2978 RMK A01 T03410122  RH  026%=      5-min Rain = 0
KCA1 132201Z 16012KT 34/12 A2978 RMK A01 T03410124  RH  027%=      5-min Rain = 0
KCA1 132202Z 16010KT 34/12 A2978 RMK A01 T03410122  RH  027%=      5-min Rain = 0
KCA1 132203Z 17011KT 34/12 A2977 RMK A01 T03390122  RH  027%=      5-min Rain = 0
KCA1 132204Z 15012KT 34/12 A2978 RMK A01 T03380124  RH  027%=      5-min Rain = 0
KCA1 132205Z 16011KT 34/12 A2978 RMK A01 T03390124  RH  027%=      5-min Rain = 0
KCA1 132206Z 15008KT 34/13 A2978 RMK A01 T03400125  RH  027%=      5-min Rain = 0
KCA1 132207Z 14008KT 34/12 A2978 RMK A01 T03400122  RH  027%=      5-min Rain = 0
KCA1 132208Z 14007KT 34/12 A2978 RMK A01 T03380121  RH  027%=      5-min Rain = 0
KCA1 132209Z 16006KT 34/12 A2978 RMK A01 T03370122  RH  027%=      5-min Rain = 0
KCA1 132210Z 15007KT 34/12 A2978 RMK A01 T03360122  RH  027%=      5-min Rain = 0
KCA1 132211Z 14008KT 34/12 A2978 RMK A01 T03370122  RH  027%=      5-min Rain = 0
KCA1 132212Z 15009KT 34/12 A2978 RMK A01 T03370123  RH  027%=      5-min Rain = 0
KCA1 132213Z 17008KT 34/12 A2978 RMK A01 T03370124  RH  027%=      5-min Rain = 0
KCA1 132214Z 16008KT 34/12 A2977 RMK A01 T03370124  RH  027%=      5-min Rain = 0
KCA1 132215Z 18008KT 34/12 A2977 RMK A01 T03380124  RH  027%=      5-min Rain = 0
KCA1 132216Z 18009KT 34/12 A2977 RMK A01 T03380121  RH  027%=      5-min Rain = 0
KCA1 132217Z 18010KT 34/12 A2977 RMK A01 T03380123  RH  027%=      5-min Rain = 0
KCA1 132218Z 17013KT 34/13 A2977 RMK A01 T03380125  RH  027%=      5-min Rain = 0
KCA1 132219Z 17013KT 34/13 A2977 RMK A01 T03390125  RH  027%=      5-min Rain = 0
KCA1 132220Z 17012KT 34/12 A2977 RMK A01 T03380124  RH  027%=      5-min Rain = 0
KCA1 132221Z 18011KT 34/12 A2977 RMK A01 T03370123  RH  027%=      5-min Rain = 0
KCA1 132222Z 18008KT 34/12 A2977 RMK A01 T03370123  RH  027%=      5-min Rain = 0
KCA1 132223Z 16007KT 34/12 A2977 RMK A01 T03370124  RH  028%=      5-min Rain = 0
KCA1 132224Z 16008KT 34/12 A2977 RMK A01 T03380124  RH  027%=      5-min Rain = 0
KCA1 132225Z 16010KT 34/13 A2977 RMK A01 T03380125  RH  027%=      5-min Rain = 0
KCA1 132226Z 17012KT 34/12 A2977 RMK A01 T03380124  RH  027%=      5-min Rain = 0
KCA1 132227Z 18010KT 34/13 A2977 RMK A01 T03380126  RH  028%=      5-min Rain = 0
KCA1 132228Z 18011KT 34/12 A2977 RMK A01 T03390124  RH  027%=      5-min Rain = 0
KCA1 132229Z 17008KT 34/12 A2977 RMK A01 T03390124  RH  027%=      5-min Rain = 0
KCA1 132230Z 17008KT 34/12 A2977 RMK A01 T03390124  RH  027%=      5-min Rain = 0
KCA1 132231Z 17008KT 34/13 A2977 RMK A01 T03390126  RH  028%=      5-min Rain = 0
KCA1 132232Z 17009KT 34/13 A2977 RMK A01 T03400126  RH  027%=      5-min Rain = 0
KCA1 132233Z 17009KT 34/13 A2977 RMK A01 T03420126  RH  027%=      5-min Rain = 0
KCA1 132234Z 17011KT 34/12 A2977 RMK A01 T03410124  RH  027%=      5-min Rain = 0
KCA1 132235Z 16010KT 34/13 A2977 RMK A01 T03380127  RH  028%=      5-min Rain = 0
KCA1 132236Z 16009KT 34/13 A2977 RMK A01 T03380126  RH  028%=      5-min Rain = 0
KCA1 132237Z 15010KT 34/13 A2977 RMK A01 T03370125  RH  028%=      5-min Rain = 0
KCA1 132238Z 15010KT 34/12 A2977 RMK A01 T03360123  RH  028%=      5-min Rain = 0
KCA1 132239Z 14008KT 33/12 A2977 RMK A01 T03340122  RH  028%=      5-min Rain = 0
KCA1 132240Z 14010KT 33/12 A2977 RMK A01 T03330124  RH  028%=      5-min Rain = 0
KCA1 132241Z 14011KT 33/12 A2977 RMK A01 T03330123  RH  028%=      5-min Rain = 0
KCA1 132242Z 14010KT 33/12 A2977 RMK A01 T03320124  RH  028%=      5-min Rain = 0
KCA1 132243Z 15012KT 33/13 A2977 RMK A01 T03330125  RH  028%=      5-min Rain = 0
KCA1 132244Z 16014KT 33/12 A2977 RMK A01 T03330123  RH  028%=      5-min Rain = 0
KCA1 132245Z 16013KT 33/12 A2977 RMK A01 T03320123  RH  028%=      5-min Rain = 0
KCA1 132246Z 16011KT 33/13 A2977 RMK A01 T03320125  RH  029%=      5-min Rain = 0
KCA1 132247Z 16012KT 33/13 A2977 RMK A01 T03320125  RH  028%=      5-min Rain = 0
KCA1 132248Z 15010KT 33/13 A2977 RMK A01 T03330125  RH  028%=      5-min Rain = 0
KCA1 132249Z 14012KT 33/13 A2977 RMK A01 T03330125  RH  028%=      5-min Rain = 0
KCA1 132250Z 15011KT 33/12 A2977 RMK A01 T03330122  RH  028%=      5-min Rain = 0
KCA1 132251Z 15010KT 33/12 A2977 RMK A01 T03320123  RH  028%=      5-min Rain = 0
KCA1 132252Z 15010KT 33/13 A2977 RMK A01 T03320125  RH  029%=      5-min Rain = 0
KCA1 132253Z 16012KT 33/13 A2977 RMK A01 T03320125  RH  028%=      5-min Rain = 0
KCA1 132254Z 17010KT 33/13 A2977 RMK A01 T03320125  RH  028%=      5-min Rain = 0
KCA1 132255Z 18008KT 33/13 A2977 RMK A01 T03320125  RH  028%=      5-min Rain = 0
KCA1 132256Z 16009KT 33/12 A2977 RMK A01 T03320124  RH  028%=      5-min Rain = 0
KCA1 132257Z 17010KT 33/13 A2977 RMK A01 T03320126  RH  029%=      5-min Rain = 0
KCA1 132258Z 16012KT 33/13 A2977 RMK A01 T03320126  RH  029%=      5-min Rain = 0
KCA1 132259Z 16012KT 33/12 A2977 RMK A01 T03320124  RH  028%=      5-min Rain = 0
KCA1 132300Z 15010KT 33/12 A2977 RMK A01 T03300124  RH  028%=      5-min Rain = 0
KCA1 132301Z 15010KT 33/13 A2977 RMK A01 T03300125  RH  029%=      5-min Rain = 0
KCA1 132302Z 15012KT 33/13 A2977 RMK A01 T03310125  RH  029%=      5-min Rain = 0
KCA1 132303Z 15012KT 33/12 A2977 RMK A01 T03310124  RH  028%=      5-min Rain = 0
KCA1 132304Z 16011KT 33/12 A2977 RMK A01 T03300123  RH  028%=      5-min Rain = 0
KCA1 132305Z 16010KT 33/12 A2977 RMK A01 T03290123  RH  029%=      5-min Rain = 0
KCA1 132306Z 16010KT 33/12 A2977 RMK A01 T03280123  RH  029%=      5-min Rain = 0
KCA1 132307Z 17009KT 33/12 A2977 RMK A01 T03280123  RH  029%=      5-min Rain = 0
KCA1 132308Z 16008KT 33/12 A2977 RMK A01 T03280124  RH  029%=      5-min Rain = 0
KCA1 132309Z 16010KT 33/13 A2977 RMK A01 T03290125  RH  029%=      5-min Rain = 0
KCA1 132310Z 17013KT 33/12 A2977 RMK A01 T03290124  RH  029%=      5-min Rain = 0
KCA1 132311Z 17010KT 33/12 A2977 RMK A01 T03280123  RH  029%=      5-min Rain = 0
KCA1 132312Z 17009KT 33/12 A2977 RMK A01 T03280124  RH  029%=      5-min Rain = 0
KCA1 132313Z 17008KT 33/12 A2977 RMK A01 T03280124  RH  029%=      5-min Rain = 0
KCA1 132314Z 16009KT 33/13 A2977 RMK A01 T03290125  RH  029%=      5-min Rain = 0
KCA1 132315Z 15010KT 33/13 A2977 RMK A01 T03290125  RH  029%=      5-min Rain = 0
KCA1 132316Z 16008KT 33/13 A2977 RMK A01 T03280125  RH  029%=      5-min Rain = 0
KCA1 132317Z 15011KT 33/13 A2977 RMK A01 T03270125  RH  029%=      5-min Rain = 0
KCA1 132318Z 16011KT 33/13 A2977 RMK A01 T03270126  RH  029%=      5-min Rain = 0
KCA1 132319Z 17011KT 33/13 A2977 RMK A01 T03260127  RH  030%=      5-min Rain = 0
KCA1 132320Z 16011KT 33/13 A2977 RMK A01 T03260126  RH  030%=      5-min Rain = 0
KCA1 132321Z 16011KT 33/12 A2977 RMK A01 T03260124  RH  029%=      5-min Rain = 0
KCA1 132322Z 16010KT 33/12 A2977 RMK A01 T03250123  RH  029%=      5-min Rain = 0
KCA1 132323Z 16011KT 33/12 A2977 RMK A01 T03250123  RH  029%=      5-min Rain = 0
KCA1 132324Z 16010KT 32/12 A2977 RMK A01 T03240124  RH  029%=      5-min Rain = 0
KCA1 132325Z 16010KT 32/12 A2977 RMK A01 T03240123  RH  029%=      5-min Rain = 0
KCA1 132326Z 16009KT 32/13 A2977 RMK A01 T03240125  RH  030%=      5-min Rain = 0
KCA1 132327Z 16010KT 32/12 A2977 RMK A01 T03230124  RH  030%=      5-min Rain = 0
KCA1 132328Z 16011KT 32/13 A2977 RMK A01 T03230125  RH  030%=      5-min Rain = 0
KCA1 132329Z 17011KT 32/13 A2977 RMK A01 T03230125  RH  030%=      5-min Rain = 0
KCA1 132330Z 15009KT 32/13 A2977 RMK A01 T03230125  RH  030%=      5-min Rain = 0
KCA1 132331Z 15012KT 32/12 A2977 RMK A01 T03220124  RH  030%=      5-min Rain = 0
KCA1 132332Z 16010KT 32/12 A2977 RMK A01 T03220124  RH  030%=      5-min Rain = 0
KCA1 132333Z 15010KT 32/12 A2977 RMK A01 T03210124  RH  030%=      5-min Rain = 0
KCA1 132334Z 15012KT 32/12 A2977 RMK A01 T03210124  RH  030%=      5-min Rain = 0
KCA1 132335Z 16010KT 32/12 A2977 RMK A01 T03200124  RH  030%=      5-min Rain = 0
KCA1 132336Z 16009KT 32/13 A2977 RMK A01 T03200125  RH  031%=      5-min Rain = 0
KCA1 132337Z 16010KT 32/13 A2977 RMK A01 T03200126  RH  031%=      5-min Rain = 0
KCA1 132338Z 16011KT 32/12 A2977 RMK A01 T03200124  RH  030%=      5-min Rain = 0
KCA1 132339Z 16013KT 32/12 A2977 RMK A01 T03190123  RH  030%=      5-min Rain = 0
KCA1 132340Z 16011KT 32/12 A2977 RMK A01 T03180122  RH  030%=      5-min Rain = 0
KCA1 132341Z 16010KT 32/12 A2977 RMK A01 T03180123  RH  030%=      5-min Rain = 0
KCA1 132342Z 16010KT 32/12 A2977 RMK A01 T03170124  RH  031%=      5-min Rain = 0
KCA1 132343Z 16011KT 32/12 A2977 RMK A01 T03170124  RH  031%=      5-min Rain = 0
KCA1 132344Z 16010KT 32/13 A2977 RMK A01 T03170125  RH  031%=      5-min Rain = 0
KCA1 132345Z 16010KT 32/13 A2977 RMK A01 T03160125  RH  031%=      5-min Rain = 0
KCA1 132346Z 16011KT 32/13 A2977 RMK A01 T03160125  RH  031%=      5-min Rain = 0
KCA1 132347Z 16010KT 32/13 A2977 RMK A01 T03160125  RH  031%=      5-min Rain = 0
KCA1 132348Z 16011KT 32/13 A2977 RMK A01 T03150125  RH  031%=      5-min Rain = 0
KCA1 132349Z 15012KT 32/13 A2977 RMK A01 T03150126  RH  031%=      5-min Rain = 0
KCA1 132350Z 15011KT 32/13 A2977 RMK A01 T03150126  RH  032%=      5-min Rain = 0
KCA1 132351Z 15009KT 31/13 A2977 RMK A01 T03140127  RH  032%=      5-min Rain = 0
KCA1 132352Z 15012KT 31/13 A2977 RMK A01 T03130127  RH  032%=      5-min Rain = 0
KCA1 132353Z 16010KT 31/13 A2977 RMK A01 T03130127  RH  032%=      5-min Rain = 0
KCA1 132354Z 16009KT 31/13 A2977 RMK A01 T03130129  RH  033%=      5-min Rain = 0
KCA1 132355Z 15010KT 31/13 A2977 RMK A01 T03120129  RH  033%=      5-min Rain = 0
KCA1 132356Z 16009KT 31/13 A2977 RMK A01 T03110128  RH  033%=      5-min Rain = 0
KCA1 132357Z 16010KT 31/13 A2977 RMK A01 T03110129  RH  033%=      5-min Rain = 0
KCA1 132358Z 15010KT 31/13 A2977 RMK A01 T03100129  RH  033%=      5-min Rain = 0
KCA1 132359Z 16011KT 31/13 A2977 RMK A01 T03090127  RH  033%=      5-min Rain = 0
KCA1 140000Z 16010KT 31/13 A2977 RMK A01 T03090127  RH  033%=      5-min Rain = 0
KCA1 140001Z 15010KT 31/13 A2977 RMK A01 T03080128  RH  033%=      5-min Rain = 0
KCA1 140002Z 15009KT 31/13 A2977 RMK A01 T03080127  RH  033%=      5-min Rain = 0
KCA1 140003Z 15011KT 31/13 A2977 RMK A01 T03080127  RH  033%=      5-min Rain = 0
KCA1 140004Z 15010KT 31/13 A2977 RMK A01 T03080126  RH  033%=      5-min Rain = 0
KCA1 140005Z 15011KT 31/13 A2977 RMK A01 T03070126  RH  033%=      5-min Rain = 0
KCA1 140006Z 15009KT 31/13 A2977 RMK A01 T03060126  RH  033%=      5-min Rain = 0
KCA1 140007Z 15009KT 31/13 A2977 RMK A01 T03060127  RH  033%=      5-min Rain = 0
KCA1 140008Z 14009KT 31/13 A2977 RMK A01 T03060127  RH  033%=      5-min Rain = 0
KCA1 140009Z 15009KT 31/13 A2977 RMK A01 T03050128  RH  034%=      5-min Rain = 0
KCA1 140010Z 15011KT 30/13 A2977 RMK A01 T03040127  RH  034%=      5-min Rain = 0
KCA1 140011Z 15009KT 30/13 A2977 RMK A01 T03040127  RH  034%=      5-min Rain = 0
KCA1 140012Z 15010KT 30/13 A2977 RMK A01 T03030128  RH  034%=      5-min Rain = 0
KCA1 140013Z 15010KT 30/13 A2977 RMK A01 T03030128  RH  034%=      5-min Rain = 0
KCA1 140014Z 15009KT 30/13 A2977 RMK A01 T03020127  RH  034%=      5-min Rain = 0
KCA1 140015Z 15008KT 30/13 A2977 RMK A01 T03020128  RH  034%=      5-min Rain = 0
KCA1 140016Z 15009KT 30/13 A2977 RMK A01 T03010129  RH  035%=      5-min Rain = 0
KCA1 140017Z 15009KT 30/13 A2977 RMK A01 T03000129  RH  035%=      5-min Rain = 0
KCA1 140018Z 14009KT 30/13 A2977 RMK A01 T03000129  RH  035%=      5-min Rain = 0
KCA1 140019Z 15009KT 30/13 A2977 RMK A01 T02990129  RH  035%=      5-min Rain = 0
KCA1 140020Z 15008KT 30/13 A2977 RMK A01 T02980129  RH  035%=      5-min Rain = 0
KCA1 140021Z 15008KT 30/13 A2977 RMK A01 T02970130  RH  036%=      5-min Rain = 0
KCA1 140022Z 15009KT 30/13 A2977 RMK A01 T02960130  RH  036%=      5-min Rain = 0
KCA1 140023Z 15009KT 30/13 A2977 RMK A01 T02950129  RH  036%=      5-min Rain = 0
KCA1 140024Z 15008KT 30/13 A2977 RMK A01 T02950129  RH  036%=      5-min Rain = 0
KCA1 140025Z 15009KT 29/13 A2977 RMK A01 T02940129  RH  036%=      5-min Rain = 0
KCA1 140026Z 14009KT 29/13 A2977 RMK A01 T02940129  RH  036%=      5-min Rain = 0
KCA1 140027Z 14009KT 29/13 A2977 RMK A01 T02930128  RH  036%=      5-min Rain = 0
KCA1 140028Z 15009KT 29/13 A2977 RMK A01 T02920128  RH  036%=      5-min Rain = 0
KCA1 140029Z 14010KT 29/13 A2977 RMK A01 T02920128  RH  036%=      5-min Rain = 0
KCA1 140030Z 14010KT 29/13 A2977 RMK A01 T02920129  RH  037%=      5-min Rain = 0
KCA1 140031Z 14008KT 29/13 A2977 RMK A01 T02910128  RH  037%=      5-min Rain = 0
KCA1 140032Z 14008KT 29/13 A2977 RMK A01 T02910128  RH  037%=      5-min Rain = 0
KCA1 140033Z 14009KT 29/13 A2977 RMK A01 T02890128  RH  037%=      5-min Rain = 0
KCA1 140034Z 14008KT 29/13 A2977 RMK A01 T02880128  RH  037%=      5-min Rain = 0
KCA1 140035Z 15009KT 29/13 A2977 RMK A01 T02870128  RH  037%=      5-min Rain = 0
KCA1 140036Z 14009KT 29/13 A2977 RMK A01 T02860128  RH  038%=      5-min Rain = 0
KCA1 140037Z 14010KT 29/13 A2978 RMK A01 T02860128  RH  038%=      5-min Rain = 0
KCA1 140038Z 14009KT 29/13 A2977 RMK A01 T02850128  RH  038%=      5-min Rain = 0
KCA1 140039Z 14009KT 29/13 A2978 RMK A01 T02850128  RH  038%=      5-min Rain = 0
KCA1 140040Z 14010KT 28/13 A2978 RMK A01 T02840128  RH  038%=      5-min Rain = 0
KCA1 140041Z 14010KT 28/13 A2978 RMK A01 T02830127  RH  038%=      5-min Rain = 0
KCA1 140042Z 14010KT 28/13 A2978 RMK A01 T02830127  RH  038%=      5-min Rain = 0
KCA1 140043Z 14011KT 28/13 A2978 RMK A01 T02830128  RH  038%=      5-min Rain = 0
KCA1 140044Z 14009KT 28/13 A2978 RMK A01 T02820127  RH  038%=      5-min Rain = 0
KCA1 140045Z 14010KT 28/13 A2978 RMK A01 T02820128  RH  039%=      5-min Rain = 0
KCA1 140046Z 14009KT 28/13 A2978 RMK A01 T02810127  RH  039%=      5-min Rain = 0
KCA1 140047Z 14009KT 28/13 A2978 RMK A01 T02810128  RH  039%=      5-min Rain = 0
KCA1 140048Z 14009KT 28/13 A2978 RMK A01 T02790127  RH  039%=      5-min Rain = 0
KCA1 140049Z 14009KT 28/13 A2978 RMK A01 T02790127  RH  039%=      5-min Rain = 0
KCA1 140050Z 14010KT 28/13 A2978 RMK A01 T02780127  RH  039%=      5-min Rain = 0
KCA1 140051Z 14010KT 28/13 A2978 RMK A01 T02780127  RH  039%=      5-min Rain = 0
KCA1 140052Z 14010KT 28/13 A2978 RMK A01 T02780127  RH  039%=      5-min Rain = 0
KCA1 140053Z 14009KT 28/13 A2978 RMK A01 T02770127  RH  039%=      5-min Rain = 0
KCA1 140054Z 14009KT 28/13 A2978 RMK A01 T02760127  RH  040%=      5-min Rain = 0
KCA1 140055Z 14009KT 28/13 A2978 RMK A01 T02760127  RH  040%=      5-min Rain = 0
KCA1 140056Z 14009KT 28/13 A2978 RMK A01 T02750127  RH  040%=      5-min Rain = 0
KCA1 140057Z 14010KT 27/13 A2978 RMK A01 T02740127  RH  040%=      5-min Rain = 0
KCA1 140058Z 14010KT 27/13 A2978 RMK A01 T02740127  RH  040%=      5-min Rain = 0
KCA1 140059Z 14009KT 27/13 A2978 RMK A01 T02730127  RH  040%=      5-min Rain = 0
KCA1 140100Z 14009KT 27/13 A2978 RMK A01 T02730127  RH  040%=      5-min Rain = 0
KCA1 140101Z 13009KT 27/13 A2978 RMK A01 T02730127  RH  040%=      5-min Rain = 0
KCA1 140102Z 13009KT 27/13 A2978 RMK A01 T02720127  RH  041%=      5-min Rain = 0
KCA1 140103Z 13009KT 27/13 A2978 RMK A01 T02710126  RH  041%=      5-min Rain = 0
KCA1 140104Z 13009KT 27/13 A2978 RMK A01 T02700126  RH  041%=      5-min Rain = 0
KCA1 140105Z 13009KT 27/13 A2978 RMK A01 T02700127  RH  041%=      5-min Rain = 0
KCA1 140106Z 13009KT 27/13 A2978 RMK A01 T02690126  RH  041%=      5-min Rain = 0
KCA1 140107Z 13008KT 27/13 A2978 RMK A01 T02680126  RH  041%=      5-min Rain = 0
KCA1 140108Z 13008KT 27/13 A2978 RMK A01 T02680126  RH  042%=      5-min Rain = 0
KCA1 140109Z 13008KT 27/13 A2978 RMK A01 T02670126  RH  042%=      5-min Rain = 0
KCA1 140110Z 13009KT 27/13 A2978 RMK A01 T02670127  RH  042%=      5-min Rain = 0
KCA1 140111Z 13009KT 27/13 A2978 RMK A01 T02670126  RH  042%=      5-min Rain = 0
KCA1 140112Z 13009KT 27/13 A2978 RMK A01 T02660126  RH  042%=      5-min Rain = 0
KCA1 140113Z 13009KT 27/13 A2978 RMK A01 T02660126  RH  042%=      5-min Rain = 0
KCA1 140114Z 13009KT 27/13 A2978 RMK A01 T02660126  RH  042%=      5-min Rain = 0
KCA1 140115Z 13009KT 27/13 A2978 RMK A01 T02650126  RH  042%=      5-min Rain = 0
KCA1 140116Z 13008KT 26/13 A2979 RMK A01 T02640126  RH  042%=      5-min Rain = 0
KCA1 140117Z 13009KT 26/13 A2979 RMK A01 T02630126  RH  043%=      5-min Rain = 0
KCA1 140118Z 13008KT 26/13 A2979 RMK A01 T02630126  RH  043%=      5-min Rain = 0
KCA1 140119Z 13008KT 26/13 A2979 RMK A01 T02620126  RH  043%=      5-min Rain = 0
KCA1 140120Z 13009KT 26/13 A2979 RMK A01 T02610126  RH  043%=      5-min Rain = 0
KCA1 140121Z 13009KT 26/13 A2979 RMK A01 T02610126  RH  043%=      5-min Rain = 0
KCA1 140122Z 13008KT 26/13 A2979 RMK A01 T02610126  RH  043%=      5-min Rain = 0
KCA1 140123Z 13008KT 26/13 A2979 RMK A01 T02610126  RH  043%=      5-min Rain = 0
KCA1 140124Z 13009KT 26/13 A2979 RMK A01 T02600126  RH  043%=      5-min Rain = 0
KCA1 140125Z 13009KT 26/13 A2979 RMK A01 T02600126  RH  043%=      5-min Rain = 0
KCA1 140126Z 13009KT 26/13 A2979 RMK A01 T02600126  RH  043%=      5-min Rain = 0
KCA1 140127Z 13009KT 26/13 A2979 RMK A01 T02600126  RH  043%=      5-min Rain = 0
KCA1 140128Z 13008KT 26/13 A2979 RMK A01 T02600126  RH  043%=      5-min Rain = 0
KCA1 140129Z 13009KT 26/13 A2979 RMK A01 T02600126  RH  044%=      5-min Rain = 0
KCA1 140130Z 13009KT 26/13 A2979 RMK A01 T02590126  RH  044%=      5-min Rain = 0
KCA1 140131Z 13009KT 26/13 A2979 RMK A01 T02580126  RH  044%=      5-min Rain = 0
KCA1 140132Z 13009KT 26/13 A2979 RMK A01 T02580126  RH  044%=      5-min Rain = 0
KCA1 140133Z 13008KT 26/13 A2979 RMK A01 T02580126  RH  044%=      5-min Rain = 0
KCA1 140134Z 13008KT 26/13 A2979 RMK A01 T02570126  RH  044%=      5-min Rain = 0
KCA1 140135Z 13009KT 26/13 A2979 RMK A01 T02570126  RH  044%=      5-min Rain = 0
KCA1 140136Z 13009KT 26/13 A2979 RMK A01 T02570126  RH  044%=      5-min Rain = 0
KCA1 140137Z 14009KT 26/13 A2979 RMK A01 T02570126  RH  044%=      5-min Rain = 0
KCA1 140138Z 13009KT 26/13 A2979 RMK A01 T02570126  RH  044%=      5-min Rain = 0
KCA1 140139Z 13010KT 26/13 A2979 RMK A01 T02570126  RH  044%=      5-min Rain = 0
KCA1 140140Z 13010KT 26/13 A298 RMK A01 T02570126  RH  044%=      5-min Rain = 0
KCA1 140141Z 13009KT 26/13 A298 RMK A01 T02560126  RH  044%=      5-min Rain = 0
KCA1 140142Z 13010KT 26/13 A298 RMK A01 T02560126  RH  044%=      5-min Rain = 0
KCA1 140143Z 13009KT 26/13 A298 RMK A01 T02560126  RH  045%=      5-min Rain = 0
KCA1 140144Z 13009KT 26/13 A298 RMK A01 T02550126  RH  045%=      5-min Rain = 0
KCA1 140145Z 13009KT 25/13 A298 RMK A01 T02540126  RH  045%=      5-min Rain = 0
KCA1 140146Z 13009KT 25/13 A298 RMK A01 T02540126  RH  045%=      5-min Rain = 0
KCA1 140147Z 13010KT 25/13 A298 RMK A01 T02530126  RH  045%=      5-min Rain = 0
KCA1 140148Z 13009KT 25/13 A298 RMK A01 T02530126  RH  045%=      5-min Rain = 0
KCA1 140149Z 13009KT 25/13 A298 RMK A01 T02530126  RH  045%=      5-min Rain = 0
KCA1 140150Z 13009KT 25/13 A298 RMK A01 T02520126  RH  045%=      5-min Rain = 0
KCA1 140151Z 13009KT 25/13 A298 RMK A01 T02520126  RH  045%=      5-min Rain = 0
KCA1 140152Z 13010KT 25/13 A298 RMK A01 T02510125  RH  046%=      5-min Rain = 0
KCA1 140153Z 13009KT 25/13 A298 RMK A01 T02510126  RH  046%=      5-min Rain = 0
KCA1 140154Z 13009KT 25/13 A298 RMK A01 T02510126  RH  046%=      5-min Rain = 0
KCA1 140155Z 14009KT 25/13 A298 RMK A01 T02500126  RH  046%=      5-min Rain = 0
KCA1 140156Z 13009KT 25/13 A298 RMK A01 T02500126  RH  046%=      5-min Rain = 0
KCA1 140157Z 13010KT 25/13 A298 RMK A01 T02490125  RH  046%=      5-min Rain = 0
KCA1 140158Z 14010KT 25/13 A298 RMK A01 T02490125  RH  046%=      5-min Rain = 0
KCA1 140159Z 13010KT 25/13 A298 RMK A01 T02490125  RH  046%=      5-min Rain = 0
KCA1 140200Z 13009KT 25/13 A298 RMK A01 T02490126  RH  046%=      5-min Rain = 0
KCA1 140201Z 13009KT 25/13 A298 RMK A01 T02490126  RH  046%=      5-min Rain = 0
KCA1 140202Z 14009KT 25/13 A298 RMK A01 T02480126  RH  046%=      5-min Rain = 0
KCA1 140203Z 13009KT 25/13 A298 RMK A01 T02480126  RH  047%=      5-min Rain = 0
KCA1 140204Z 13009KT 25/13 A298 RMK A01 T02470125  RH  047%=      5-min Rain = 0
KCA1 140205Z 13009KT 25/13 A298 RMK A01 T02480126  RH  047%=      5-min Rain = 0
KCA1 140206Z 13009KT 25/13 A298 RMK A01 T02470125  RH  047%=      5-min Rain = 0
KCA1 140207Z 13009KT 25/13 A298 RMK A01 T02470125  RH  047%=      5-min Rain = 0
KCA1 140208Z 13009KT 25/13 A298 RMK A01 T02470125  RH  047%=      5-min Rain = 0
KCA1 140209Z 13009KT 25/13 A298 RMK A01 T02460125  RH  047%=      5-min Rain = 0
KCA1 140210Z 12009KT 25/13 A298 RMK A01 T02460125  RH  047%=      5-min Rain = 0
KCA1 140211Z 13009KT 25/13 A298 RMK A01 T02460125  RH  047%=      5-min Rain = 0
KCA1 140212Z 13009KT 25/13 A2981 RMK A01 T02450125  RH  047%=      5-min Rain = 0
KCA1 140213Z 13008KT 25/12 A2981 RMK A01 T02450124  RH  047%=      5-min Rain = 0
KCA1 140214Z 13008KT 25/12 A2981 RMK A01 T02450124  RH  047%=      5-min Rain = 0
KCA1 140215Z 13009KT 24/13 A2981 RMK A01 T02440125  RH  047%=      5-min Rain = 0
KCA1 140216Z 13008KT 24/13 A2981 RMK A01 T02440125  RH  047%=      5-min Rain = 0
KCA1 140217Z 13008KT 24/13 A2981 RMK A01 T02440125  RH  047%=      5-min Rain = 0
KCA1 140218Z 13009KT 24/13 A2981 RMK A01 T02440125  RH  047%=      5-min Rain = 0
KCA1 140219Z 13008KT 24/13 A2981 RMK A01 T02430125  RH  048%=      5-min Rain = 0
KCA1 140220Z 13009KT 24/13 A2981 RMK A01 T02420125  RH  048%=      5-min Rain = 0
KCA1 140221Z 13009KT 24/13 A2981 RMK A01 T02410125  RH  048%=      5-min Rain = 0
KCA1 140222Z 13009KT 24/12 A2981 RMK A01 T02400124  RH  048%=      5-min Rain = 0
KCA1 140223Z 12009KT 24/12 A2981 RMK A01 T02400124  RH  048%=      5-min Rain = 0
KCA1 140224Z 13009KT 24/12 A2981 RMK A01 T02390124  RH  048%=      5-min Rain = 0
KCA1 140225Z 13009KT 24/13 A2981 RMK A01 T02390125  RH  049%=      5-min Rain = 0
KCA1 140226Z 13009KT 24/13 A2981 RMK A01 T02390125  RH  049%=      5-min Rain = 0
KCA1 140227Z 13009KT 24/12 A2981 RMK A01 T02390124  RH  049%=      5-min Rain = 0
KCA1 140228Z 13009KT 24/12 A2981 RMK A01 T02390124  RH  049%=      5-min Rain = 0
KCA1 140229Z 13009KT 24/13 A2981 RMK A01 T02390125  RH  049%=      5-min Rain = 0
KCA1 140230Z 13009KT 24/13 A2981 RMK A01 T02390125  RH  049%=      5-min Rain = 0
KCA1 140231Z 13009KT 24/13 A2981 RMK A01 T02390125  RH  049%=      5-min Rain = 0
KCA1 140232Z 13009KT 24/13 A2981 RMK A01 T02390125  RH  049%=      5-min Rain = 0
KCA1 140233Z 12009KT 24/12 A2981 RMK A01 T02390124  RH  049%=      5-min Rain = 0
KCA1 140234Z 13008KT 24/13 A2981 RMK A01 T02390125  RH  049%=      5-min Rain = 0
KCA1 140235Z 12009KT 24/13 A2981 RMK A01 T02390125  RH  049%=      5-min Rain = 0
KCA1 140236Z 12009KT 24/13 A2982 RMK A01 T02390125  RH  049%=      5-min Rain = 0
KCA1 140237Z 12009KT 24/13 A2982 RMK A01 T02390125  RH  049%=      5-min Rain = 0
KCA1 140238Z 12009KT 24/13 A2982 RMK A01 T02380125  RH  049%=      5-min Rain = 0
KCA1 140239Z 13009KT 24/13 A2982 RMK A01 T02380125  RH  049%=      5-min Rain = 0
KCA1 140240Z 13009KT 24/13 A2982 RMK A01 T02380125  RH  049%=      5-min Rain = 0
KCA1 140241Z 13010KT 24/13 A2982 RMK A01 T02380125  RH  049%=      5-min Rain = 0
KCA1 140242Z 13009KT 24/13 A2982 RMK A01 T02380125  RH  049%=      5-min Rain = 0
KCA1 140243Z 13009KT 24/13 A2982 RMK A01 T02390125  RH  049%=      5-min Rain = 0
KCA1 140244Z 13010KT 24/13 A2982 RMK A01 T02390125  RH  049%=      5-min Rain = 0
KCA1 140245Z 13009KT 24/13 A2982 RMK A01 T02400125  RH  049%=      5-min Rain = 0
KCA1 140246Z 13011KT 24/13 A2982 RMK A01 T02400125  RH  048%=      5-min Rain = 0
KCA1 140247Z 13011KT 24/13 A2982 RMK A01 T02410125  RH  048%=      5-min Rain = 0
KCA1 140248Z 13010KT 24/13 A2982 RMK A01 T02410125  RH  048%=      5-min Rain = 0
KCA1 140249Z 13009KT 24/12 A2982 RMK A01 T02410124  RH  048%=      5-min Rain = 0
KCA1 140250Z 12009KT 24/13 A2982 RMK A01 T02410125  RH  048%=      5-min Rain = 0
KCA1 140251Z 13009KT 24/13 A2982 RMK A01 T02400125  RH  049%=      5-min Rain = 0
KCA1 140252Z 12009KT 24/12 A2982 RMK A01 T02380124  RH  049%=      5-min Rain = 0
KCA1 140253Z 13009KT 24/12 A2982 RMK A01 T02380124  RH  049%=      5-min Rain = 0
KCA1 140254Z 13009KT 24/12 A2982 RMK A01 T02370124  RH  049%=      5-min Rain = 0
KCA1 140255Z 12010KT 24/13 A2982 RMK A01 T02370125  RH  049%=      5-min Rain = 0
KCA1 140256Z 12009KT 24/12 A2982 RMK A01 T02360124  RH  049%=      5-min Rain = 0
KCA1 140257Z 12009KT 24/12 A2982 RMK A01 T02350124  RH  050%=      5-min Rain = 0
KCA1 140258Z 12009KT 24/12 A2982 RMK A01 T02350124  RH  050%=      5-min Rain = 0
KCA1 140259Z 13009KT 23/12 A2982 RMK A01 T02340124  RH  050%=      5-min Rain = 0
KCA1 140300Z 12009KT 23/12 A2982 RMK A01 T02340124  RH  050%=      5-min Rain = 0
KCA1 140301Z 12009KT 23/12 A2982 RMK A01 T02330124  RH  050%=      5-min Rain = 0
KCA1 140302Z 12009KT 23/12 A2982 RMK A01 T02330124  RH  050%=      5-min Rain = 0
KCA1 140303Z 12009KT 23/12 A2982 RMK A01 T02320123  RH  050%=      5-min Rain = 0
KCA1 140304Z 12009KT 23/12 A2982 RMK A01 T02320123  RH  050%=      5-min Rain = 0
KCA1 140305Z 12009KT 23/12 A2982 RMK A01 T02320123  RH  050%=      5-min Rain = 0
KCA1 140306Z 12008KT 23/12 A2982 RMK A01 T02320122  RH  050%=      5-min Rain = 0
KCA1 140307Z 12009KT 23/12 A2982 RMK A01 T02320122  RH  050%=      5-min Rain = 0
KCA1 140308Z 12009KT 23/12 A2982 RMK A01 T02320122  RH  050%=      5-min Rain = 0
KCA1 140309Z 12009KT 23/12 A2982 RMK A01 T02320122  RH  050%=      5-min Rain = 0
KCA1 140310Z 12009KT 23/12 A2982 RMK A01 T02330122  RH  050%=      5-min Rain = 0
KCA1 140311Z 12009KT 23/12 A2982 RMK A01 T02330122  RH  050%=      5-min Rain = 0
KCA1 140312Z 12009KT 23/12 A2982 RMK A01 T02320122  RH  050%=      5-min Rain = 0
KCA1 140313Z 12009KT 23/12 A2982 RMK A01 T02330122  RH  050%=      5-min Rain = 0
KCA1 140314Z 12009KT 23/12 A2982 RMK A01 T02320121  RH  050%=      5-min Rain = 0
KCA1 140315Z 12009KT 23/12 A2982 RMK A01 T02320122  RH  050%=      5-min Rain = 0
KCA1 140316Z 12010KT 23/12 A2982 RMK A01 T02310121  RH  050%=      5-min Rain = 0
KCA1 140317Z 12010KT 23/12 A2982 RMK A01 T02310121  RH  050%=      5-min Rain = 0
KCA1 140318Z 12010KT 23/12 A2982 RMK A01 T02310121  RH  050%=      5-min Rain = 0
KCA1 140319Z 12010KT 23/12 A2982 RMK A01 T02310120  RH  050%=      5-min Rain = 0
KCA1 140320Z 12011KT 23/12 A2982 RMK A01 T02320120  RH  049%=      5-min Rain = 0
KCA1 140321Z 12009KT 23/12 A2982 RMK A01 T02320120  RH  049%=      5-min Rain = 0
KCA1 140322Z 12010KT 23/12 A2982 RMK A01 T02320120  RH  049%=      5-min Rain = 0
KCA1 140323Z 12009KT 23/12 A2982 RMK A01 T02320119  RH  049%=      5-min Rain = 0
KCA1 140324Z 12009KT 23/12 A2982 RMK A01 T02320119  RH  049%=      5-min Rain = 0
KCA1 140325Z 12011KT 23/12 A2982 RMK A01 T02320119  RH  049%=      5-min Rain = 0
KCA1 140326Z 12010KT 23/12 A2982 RMK A01 T02330119  RH  049%=      5-min Rain = 0
KCA1 140327Z 11010KT 23/12 A2982 RMK A01 T02330119  RH  049%=      5-min Rain = 0
KCA1 140328Z 11010KT 23/12 A2982 RMK A01 T02330120  RH  049%=      5-min Rain = 0
KCA1 140329Z 12009KT 23/12 A2982 RMK A01 T02320119  RH  049%=      5-min Rain = 0
KCA1 140330Z 11009KT 23/12 A2982 RMK A01 T02320119  RH  049%=      5-min Rain = 0
KCA1 140331Z 12009KT 23/12 A2982 RMK A01 T02310119  RH  049%=      5-min Rain = 0
KCA1 140332Z 12010KT 23/12 A2982 RMK A01 T02310119  RH  049%=      5-min Rain = 0
KCA1 140333Z 12009KT 23/12 A2982 RMK A01 T02310119  RH  049%=      5-min Rain = 0
KCA1 140334Z 12009KT 23/12 A2982 RMK A01 T02310118  RH  049%=      5-min Rain = 0
KCA1 140335Z 12008KT 23/12 A2982 RMK A01 T02300118  RH  049%=      5-min Rain = 0
KCA1 140336Z 12009KT 23/12 A2983 RMK A01 T02300119  RH  049%=      5-min Rain = 0
KCA1 140337Z 12010KT 23/12 A2983 RMK A01 T02300118  RH  049%=      5-min Rain = 0
KCA1 140338Z 12009KT 23/12 A2983 RMK A01 T02300118  RH  049%=      5-min Rain = 0
KCA1 140339Z 12008KT 23/12 A2983 RMK A01 T02300119  RH  049%=      5-min Rain = 0
KCA1 140340Z 12009KT 23/12 A2983 RMK A01 T02290119  RH  050%=      5-min Rain = 0
KCA1 140341Z 12008KT 23/12 A2983 RMK A01 T02290118  RH  050%=      5-min Rain = 0
KCA1 140342Z 12008KT 23/12 A2983 RMK A01 T02280118  RH  050%=      5-min Rain = 0
KCA1 140343Z 12009KT 23/12 A2983 RMK A01 T02280117  RH  050%=      5-min Rain = 0
KCA1 140344Z 12009KT 23/12 A2983 RMK A01 T02290118  RH  049%=      5-min Rain = 0
KCA1 140345Z 13010KT 23/12 A2983 RMK A01 T02290117  RH  049%=      5-min Rain = 0
KCA1 140346Z 12009KT 23/12 A2983 RMK A01 T02290117  RH  049%=      5-min Rain = 0
KCA1 140347Z 12009KT 23/12 A2983 RMK A01 T02300117  RH  049%=      5-min Rain = 0
KCA1 140348Z 12009KT 23/12 A2983 RMK A01 T02300118  RH  049%=      5-min Rain = 0
KCA1 140349Z 12009KT 23/12 A2983 RMK A01 T02290117  RH  049%=      5-min Rain = 0
KCA1 140350Z 13009KT 23/12 A2983 RMK A01 T02290117  RH  049%=      5-min Rain = 0
KCA1 140351Z 12008KT 23/12 A2983 RMK A01 T02290117  RH  049%=      5-min Rain = 0
KCA1 140352Z 13009KT 23/12 A2983 RMK A01 T02280117  RH  049%=      5-min Rain = 0
KCA1 140353Z 13008KT 23/12 A2983 RMK A01 T02280117  RH  050%=      5-min Rain = 0
KCA1 140354Z 12008KT 23/12 A2983 RMK A01 T02270117  RH  050%=      5-min Rain = 0
KCA1 140355Z 13008KT 23/12 A2983 RMK A01 T02270117  RH  050%=      5-min Rain = 0
KCA1 140356Z 13009KT 23/12 A2983 RMK A01 T02260117  RH  050%=      5-min Rain = 0
KCA1 140357Z 13008KT 23/12 A2983 RMK A01 T02260117  RH  050%=      5-min Rain = 0
KCA1 140358Z 13009KT 23/12 A2983 RMK A01 T02250117  RH  050%=      5-min Rain = 0
KCA1 140359Z 13010KT 23/12 A2983 RMK A01 T02250116  RH  050%=      5-min Rain = 0
KCA1 140400Z 13009KT 23/12 A2983 RMK A01 T02250116  RH  050%=      5-min Rain = 0
KCA1 140401Z 13009KT 23/12 A2982 RMK A01 T02250116  RH  050%=      5-min Rain = 0
KCA1 140402Z 13009KT 23/12 A2982 RMK A01 T02250116  RH  050%=      5-min Rain = 0
KCA1 140403Z 13009KT 23/12 A2982 RMK A01 T02250116  RH  050%=      5-min Rain = 0
KCA1 140404Z 13010KT 23/12 A2982 RMK A01 T02250116  RH  050%=      5-min Rain = 0
KCA1 140405Z 13009KT 23/12 A2982 RMK A01 T02250116  RH  050%=      5-min Rain = 0
KCA1 140406Z 13008KT 23/12 A2982 RMK A01 T02250116  RH  050%=      5-min Rain = 0
KCA1 140407Z 14009KT 22/12 A2982 RMK A01 T02240116  RH  050%=      5-min Rain = 0
KCA1 140408Z 14010KT 22/12 A2982 RMK A01 T02240116  RH  050%=      5-min Rain = 0
KCA1 140409Z 14008KT 22/12 A2982 RMK A01 T02240115  RH  050%=      5-min Rain = 0
KCA1 140410Z 14009KT 23/12 A2982 RMK A01 T02250116  RH  050%=      5-min Rain = 0
KCA1 140411Z 14008KT 22/12 A2982 RMK A01 T02240115  RH  050%=      5-min Rain = 0
KCA1 140412Z 14009KT 23/12 A2982 RMK A01 T02250116  RH  050%=      5-min Rain = 0
KCA1 140413Z 14009KT 22/12 A2982 RMK A01 T02240115  RH  050%=      5-min Rain = 0
KCA1 140414Z 14008KT 22/12 A2982 RMK A01 T02230115  RH  050%=      5-min Rain = 0
KCA1 140415Z 14009KT 22/12 A2982 RMK A01 T02230116  RH  051%=      5-min Rain = 0
KCA1 140416Z 14008KT 22/12 A2982 RMK A01 T02220115  RH  051%=      5-min Rain = 0
KCA1 140417Z 14009KT 22/12 A2982 RMK A01 T02210115  RH  051%=      5-min Rain = 0
KCA1 140418Z 14008KT 22/12 A2982 RMK A01 T02220115  RH  051%=      5-min Rain = 0
KCA1 140419Z 14009KT 22/12 A2982 RMK A01 T02210115  RH  051%=      5-min Rain = 0
KCA1 140420Z 14009KT 22/12 A2982 RMK A01 T02210115  RH  051%=      5-min Rain = 0
KCA1 140421Z 14009G14KT 22/12 A2982 RMK A01 T02210115  RH  051%=      5-min Rain = 0
KCA1 140422Z 14009KT 22/12 A2982 RMK A01 T02210115  RH  051%=      5-min Rain = 0
KCA1 140423Z 14009KT 22/11 A2982 RMK A01 T02210114  RH  051%=      5-min Rain = 0
KCA1 140424Z 14009KT 22/11 A2982 RMK A01 T02210114  RH  051%=      5-min Rain = 0
KCA1 140425Z 14010KT 22/11 A2982 RMK A01 T02220114  RH  050%=      5-min Rain = 0
KCA1 140426Z 14009KT 22/11 A2982 RMK A01 T02230114  RH  050%=      5-min Rain = 0
KCA1 140427Z 14009KT 22/12 A2982 RMK A01 T02230115  RH  050%=      5-min Rain = 0
KCA1 140428Z 13008KT 22/11 A2982 RMK A01 T02220114  RH  050%=      5-min Rain = 0
KCA1 140429Z 14009KT 22/11 A2982 RMK A01 T02220114  RH  050%=      5-min Rain = 0
KCA1 140430Z 14010KT 22/11 A2982 RMK A01 T02230114  RH  050%=      5-min Rain = 0
KCA1 140431Z 14010KT 22/11 A2982 RMK A01 T02230113  RH  050%=      5-min Rain = 0
KCA1 140432Z 14009KT 22/11 A2982 RMK A01 T02230113  RH  050%=      5-min Rain = 0
KCA1 140433Z 14008KT 22/11 A2982 RMK A01 T02230113  RH  050%=      5-min Rain = 0
KCA1 140434Z 14009KT 22/11 A2982 RMK A01 T02230113  RH  050%=      5-min Rain = 0
KCA1 140435Z 13008KT 22/11 A2982 RMK A01 T02240112  RH  049%=      5-min Rain = 0
KCA1 140436Z 12008KT 22/11 A2982 RMK A01 T02240112  RH  049%=      5-min Rain = 0
KCA1 140437Z 13009KT 23/11 A2982 RMK A01 T02250113  RH  049%=      5-min Rain = 0
KCA1 140438Z 13008KT 23/11 A2982 RMK A01 T02250112  RH  049%=      5-min Rain = 0
KCA1 140439Z 13008KT 23/11 A2982 RMK A01 T02250113  RH  049%=      5-min Rain = 0
KCA1 140440Z 13009KT 23/11 A2982 RMK A01 T02250112  RH  049%=      5-min Rain = 0
KCA1 140441Z 13009KT 23/11 A2982 RMK A01 T02250112  RH  049%=      5-min Rain = 0
KCA1 140442Z 13007G12KT 23/11 A2982 RMK A01 T02250111  RH  049%=      5-min Rain = 0
KCA1 140443Z 13009KT 23/11 A2982 RMK A01 T02250111  RH  048%=      5-min Rain = 0
KCA1 140444Z 13010KT 23/11 A2982 RMK A01 T02260111  RH  048%=      5-min Rain = 0
KCA1 140445Z 12008KT 23/11 A2982 RMK A01 T02260111  RH  048%=      5-min Rain = 0
KCA1 140446Z 12008KT 23/11 A2982 RMK A01 T02260111  RH  048%=      5-min Rain = 0
KCA1 140447Z 12009KT 23/11 A2982 RMK A01 T02250111  RH  048%=      5-min Rain = 0
KCA1 140448Z 13009KT 23/11 A2982 RMK A01 T02250111  RH  048%=      5-min Rain = 0
KCA1 140449Z 13009KT 23/11 A2982 RMK A01 T02250110  RH  048%=      5-min Rain = 0
KCA1 140450Z 12008KT 23/11 A2982 RMK A01 T02250110  RH  048%=      5-min Rain = 0
KCA1 140451Z 12008KT 23/11 A2982 RMK A01 T02250110  RH  048%=      5-min Rain = 0
KCA1 140452Z 12007KT 23/11 A2982 RMK A01 T02250110  RH  048%=      5-min Rain = 0
KCA1 140453Z 12008KT 23/11 A2982 RMK A01 T02250110  RH  048%=      5-min Rain = 0
KCA1 140454Z 12007KT 23/11 A2982 RMK A01 T02260110  RH  048%=      5-min Rain = 0
KCA1 140455Z 12008KT 23/11 A2982 RMK A01 T02260110  RH  048%=      5-min Rain = 0
KCA1 140456Z 12006KT 23/11 A2982 RMK A01 T02260109  RH  047%=      5-min Rain = 0
KCA1 140457Z 12007KT 23/11 A2982 RMK A01 T02270110  RH  048%=      5-min Rain = 0
KCA1 140458Z 11007KT 23/11 A2982 RMK A01 T02260109  RH  048%=      5-min Rain = 0
KCA1 140459Z 12008KT 23/11 A2982 RMK A01 T02260109  RH  048%=      5-min Rain = 0

Page generated in 0.3493 seconds.